<?xml version="1.0" encoding="UTF-8" standalone="no" ?>
<gpx xmlns="http://www.topografix.com/GPX/1/1" xmlns:xsi="http://www.w3.org/2001/XMLSchema-instance" xsi:schemaLocation="http://www.topografix.com/GPX/1/1 http://www.topografix.com/GPX/1/1/gpx.xsd" version="1.1" creator="VisuGPX - https://www.visugpx.com">
  <metadata>
    <name>Les Trois Monts</name>
    <desc><![CDATA[Voici la rando que je nomme les 3 monts car elle vous fera passer par les trois plus hauts sommets de la région châlonnaise / beaunoise : le Mont Rome - le Mont Rême et pour finir les Trois Croix. A chaque sommet, vous pourrez découvrir un paysage splendide de la région de Santenay / Nolay. Il faut noter que cette rando suit en grande partie le sentier Jean Marc Boivin. Pour les amateurs de descente, vous pourrez vous éclater sur une des plus belles descentes de la région en redescendant sur Santenay : un pur bonheur !]]></desc>
  </metadata>
  <trk>
    <name><![CDATA[Les Trois Monts]]></name>
    <trkseg>
      <trkpt lat="46.91161" lon="4.69997">
        <ele>221</ele>
        <time>2015-05-19T12:00:00Z</time>
      </trkpt>
      <trkpt lat="46.91146" lon="4.70008">
        <ele>220.2</ele>
        <time>2015-05-19T12:00:07Z</time>
      </trkpt>
      <trkpt lat="46.91141" lon="4.70017">
        <ele>220.2</ele>
        <time>2015-05-19T12:00:10Z</time>
      </trkpt>
      <trkpt lat="46.91147" lon="4.70047">
        <ele>220.9</ele>
        <time>2015-05-19T12:00:20Z</time>
      </trkpt>
      <trkpt lat="46.91156" lon="4.70071">
        <ele>221.6</ele>
        <time>2015-05-19T12:00:28Z</time>
      </trkpt>
      <trkpt lat="46.91164" lon="4.70071">
        <ele>222.1</ele>
        <time>2015-05-19T12:00:32Z</time>
      </trkpt>
      <trkpt lat="46.91212" lon="4.70083">
        <ele>225.2</ele>
        <time>2015-05-19T12:00:53Z</time>
      </trkpt>
      <trkpt lat="46.91359" lon="4.70128">
        <ele>235.2</ele>
        <time>2015-05-19T12:02:00Z</time>
      </trkpt>
      <trkpt lat="46.91371" lon="4.70133">
        <ele>236.3</ele>
        <time>2015-05-19T12:02:06Z</time>
      </trkpt>
      <trkpt lat="46.91382" lon="4.70146">
        <ele>237.3</ele>
        <time>2015-05-19T12:02:12Z</time>
      </trkpt>
      <trkpt lat="46.91403" lon="4.70164">
        <ele>239.7</ele>
        <time>2015-05-19T12:02:23Z</time>
      </trkpt>
      <trkpt lat="46.91422" lon="4.70179">
        <ele>242.2</ele>
        <time>2015-05-19T12:02:32Z</time>
      </trkpt>
      <trkpt lat="46.91444" lon="4.70193">
        <ele>245.4</ele>
        <time>2015-05-19T12:02:43Z</time>
      </trkpt>
      <trkpt lat="46.91474" lon="4.70212">
        <ele>250.1</ele>
        <time>2015-05-19T12:02:58Z</time>
      </trkpt>
      <trkpt lat="46.91487" lon="4.7022">
        <ele>251.7</ele>
        <time>2015-05-19T12:03:04Z</time>
      </trkpt>
      <trkpt lat="46.91501" lon="4.70221">
        <ele>253.6</ele>
        <time>2015-05-19T12:03:10Z</time>
      </trkpt>
      <trkpt lat="46.91517" lon="4.70218">
        <ele>256.2</ele>
        <time>2015-05-19T12:03:17Z</time>
      </trkpt>
      <trkpt lat="46.91527" lon="4.70219">
        <ele>257.9</ele>
        <time>2015-05-19T12:03:22Z</time>
      </trkpt>
      <trkpt lat="46.9156" lon="4.70235">
        <ele>263</ele>
        <time>2015-05-19T12:03:37Z</time>
      </trkpt>
      <trkpt lat="46.91577" lon="4.70238">
        <ele>265.7</ele>
        <time>2015-05-19T12:03:45Z</time>
      </trkpt>
      <trkpt lat="46.91639" lon="4.70243">
        <ele>276</ele>
        <time>2015-05-19T12:04:12Z</time>
      </trkpt>
      <trkpt lat="46.91659" lon="4.70237">
        <ele>280</ele>
        <time>2015-05-19T12:04:22Z</time>
      </trkpt>
      <trkpt lat="46.91671" lon="4.70231">
        <ele>282.3</ele>
        <time>2015-05-19T12:04:27Z</time>
      </trkpt>
      <trkpt lat="46.91686" lon="4.70226">
        <ele>285.6</ele>
        <time>2015-05-19T12:04:34Z</time>
      </trkpt>
      <trkpt lat="46.91714" lon="4.70226">
        <ele>291.2</ele>
        <time>2015-05-19T12:04:47Z</time>
      </trkpt>
      <trkpt lat="46.91752" lon="4.70221">
        <ele>298.3</ele>
        <time>2015-05-19T12:05:03Z</time>
      </trkpt>
      <trkpt lat="46.91777" lon="4.70228">
        <ele>302.6</ele>
        <time>2015-05-19T12:05:15Z</time>
      </trkpt>
      <trkpt lat="46.91785" lon="4.70221">
        <ele>304.6</ele>
        <time>2015-05-19T12:05:19Z</time>
      </trkpt>
      <trkpt lat="46.9182" lon="4.70205">
        <ele>312.4</ele>
        <time>2015-05-19T12:05:35Z</time>
      </trkpt>
      <trkpt lat="46.91831" lon="4.702">
        <ele>314.9</ele>
        <time>2015-05-19T12:05:40Z</time>
      </trkpt>
      <trkpt lat="46.91835" lon="4.70202">
        <ele>315.7</ele>
        <time>2015-05-19T12:05:42Z</time>
      </trkpt>
      <trkpt lat="46.91844" lon="4.70208">
        <ele>317.2</ele>
        <time>2015-05-19T12:05:46Z</time>
      </trkpt>
      <trkpt lat="46.91854" lon="4.70212">
        <ele>319.1</ele>
        <time>2015-05-19T12:05:51Z</time>
      </trkpt>
      <trkpt lat="46.91877" lon="4.70211">
        <ele>323.4</ele>
        <time>2015-05-19T12:06:02Z</time>
      </trkpt>
      <trkpt lat="46.91898" lon="4.70213">
        <ele>326.6</ele>
        <time>2015-05-19T12:06:11Z</time>
      </trkpt>
      <trkpt lat="46.91929" lon="4.70226">
        <ele>331.5</ele>
        <time>2015-05-19T12:06:25Z</time>
      </trkpt>
      <trkpt lat="46.91939" lon="4.70232">
        <ele>333.2</ele>
        <time>2015-05-19T12:06:30Z</time>
      </trkpt>
      <trkpt lat="46.91949" lon="4.70251">
        <ele>334.8</ele>
        <time>2015-05-19T12:06:37Z</time>
      </trkpt>
      <trkpt lat="46.91956" lon="4.70268">
        <ele>336</ele>
        <time>2015-05-19T12:06:43Z</time>
      </trkpt>
      <trkpt lat="46.91966" lon="4.70284">
        <ele>337.8</ele>
        <time>2015-05-19T12:06:50Z</time>
      </trkpt>
      <trkpt lat="46.91977" lon="4.70292">
        <ele>340</ele>
        <time>2015-05-19T12:06:55Z</time>
      </trkpt>
      <trkpt lat="46.92" lon="4.70288">
        <ele>345.2</ele>
        <time>2015-05-19T12:07:05Z</time>
      </trkpt>
      <trkpt lat="46.92012" lon="4.70291">
        <ele>347.8</ele>
        <time>2015-05-19T12:07:11Z</time>
      </trkpt>
      <trkpt lat="46.92033" lon="4.70295">
        <ele>352.5</ele>
        <time>2015-05-19T12:07:21Z</time>
      </trkpt>
      <trkpt lat="46.92073" lon="4.70311">
        <ele>358.9</ele>
        <time>2015-05-19T12:07:39Z</time>
      </trkpt>
      <trkpt lat="46.92116" lon="4.70322">
        <ele>363.5</ele>
        <time>2015-05-19T12:07:58Z</time>
      </trkpt>
      <trkpt lat="46.92134" lon="4.70327">
        <ele>365.3</ele>
        <time>2015-05-19T12:08:06Z</time>
      </trkpt>
      <trkpt lat="46.92148" lon="4.70329">
        <ele>367.2</ele>
        <time>2015-05-19T12:08:13Z</time>
      </trkpt>
      <trkpt lat="46.9217" lon="4.70324">
        <ele>370.9</ele>
        <time>2015-05-19T12:08:23Z</time>
      </trkpt>
      <trkpt lat="46.92184" lon="4.70324">
        <ele>373</ele>
        <time>2015-05-19T12:08:29Z</time>
      </trkpt>
      <trkpt lat="46.92197" lon="4.7032">
        <ele>375.3</ele>
        <time>2015-05-19T12:08:35Z</time>
      </trkpt>
      <trkpt lat="46.92212" lon="4.7032">
        <ele>377.3</ele>
        <time>2015-05-19T12:08:41Z</time>
      </trkpt>
      <trkpt lat="46.92224" lon="4.70316">
        <ele>379.5</ele>
        <time>2015-05-19T12:08:47Z</time>
      </trkpt>
      <trkpt lat="46.92234" lon="4.70318">
        <ele>380.6</ele>
        <time>2015-05-19T12:08:51Z</time>
      </trkpt>
      <trkpt lat="46.92245" lon="4.70324">
        <ele>381.8</ele>
        <time>2015-05-19T12:08:57Z</time>
      </trkpt>
      <trkpt lat="46.92272" lon="4.70335">
        <ele>384.7</ele>
        <time>2015-05-19T12:09:09Z</time>
      </trkpt>
      <trkpt lat="46.92288" lon="4.70337">
        <ele>386.3</ele>
        <time>2015-05-19T12:09:16Z</time>
      </trkpt>
      <trkpt lat="46.92317" lon="4.70345">
        <ele>388.8</ele>
        <time>2015-05-19T12:09:29Z</time>
      </trkpt>
      <trkpt lat="46.92345" lon="4.70348">
        <ele>391.1</ele>
        <time>2015-05-19T12:09:42Z</time>
      </trkpt>
      <trkpt lat="46.9239" lon="4.70348">
        <ele>395.4</ele>
        <time>2015-05-19T12:10:02Z</time>
      </trkpt>
      <trkpt lat="46.92401" lon="4.70353">
        <ele>396.4</ele>
        <time>2015-05-19T12:10:07Z</time>
      </trkpt>
      <trkpt lat="46.92418" lon="4.70364">
        <ele>397.4</ele>
        <time>2015-05-19T12:10:15Z</time>
      </trkpt>
      <trkpt lat="46.92457" lon="4.70362">
        <ele>400.8</ele>
        <time>2015-05-19T12:10:32Z</time>
      </trkpt>
      <trkpt lat="46.9246" lon="4.70338">
        <ele>402.6</ele>
        <time>2015-05-19T12:10:40Z</time>
      </trkpt>
      <trkpt lat="46.92483" lon="4.70347">
        <ele>403.6</ele>
        <time>2015-05-19T12:10:50Z</time>
      </trkpt>
      <trkpt lat="46.92474" lon="4.70307">
        <ele>406.1</ele>
        <time>2015-05-19T12:11:03Z</time>
      </trkpt>
      <trkpt lat="46.92497" lon="4.70315">
        <ele>407.2</ele>
        <time>2015-05-19T12:11:14Z</time>
      </trkpt>
      <trkpt lat="46.92511" lon="4.70295">
        <ele>409.1</ele>
        <time>2015-05-19T12:11:23Z</time>
      </trkpt>
      <trkpt lat="46.92517" lon="4.70282">
        <ele>410.2</ele>
        <time>2015-05-19T12:11:27Z</time>
      </trkpt>
      <trkpt lat="46.92517" lon="4.70259">
        <ele>411.9</ele>
        <time>2015-05-19T12:11:34Z</time>
      </trkpt>
      <trkpt lat="46.92511" lon="4.70244">
        <ele>412.8</ele>
        <time>2015-05-19T12:11:40Z</time>
      </trkpt>
      <trkpt lat="46.92503" lon="4.70161">
        <ele>417.6</ele>
        <time>2015-05-19T12:12:05Z</time>
      </trkpt>
      <trkpt lat="46.92501" lon="4.70119">
        <ele>420.1</ele>
        <time>2015-05-19T12:12:18Z</time>
      </trkpt>
      <trkpt lat="46.92497" lon="4.70082">
        <ele>421.7</ele>
        <time>2015-05-19T12:12:29Z</time>
      </trkpt>
      <trkpt lat="46.9249" lon="4.70064">
        <ele>422.4</ele>
        <time>2015-05-19T12:12:36Z</time>
      </trkpt>
      <trkpt lat="46.92464" lon="4.70028">
        <ele>424.3</ele>
        <time>2015-05-19T12:12:51Z</time>
      </trkpt>
      <trkpt lat="46.92437" lon="4.69969">
        <ele>427.9</ele>
        <time>2015-05-19T12:13:13Z</time>
      </trkpt>
      <trkpt lat="46.92412" lon="4.699">
        <ele>432.1</ele>
        <time>2015-05-19T12:13:37Z</time>
      </trkpt>
      <trkpt lat="46.92399" lon="4.69852">
        <ele>434.7</ele>
        <time>2015-05-19T12:13:52Z</time>
      </trkpt>
      <trkpt lat="46.92381" lon="4.69805">
        <ele>437.1</ele>
        <time>2015-05-19T12:14:09Z</time>
      </trkpt>
      <trkpt lat="46.9238" lon="4.69786">
        <ele>438.2</ele>
        <time>2015-05-19T12:14:14Z</time>
      </trkpt>
      <trkpt lat="46.92382" lon="4.69753">
        <ele>440.6</ele>
        <time>2015-05-19T12:14:25Z</time>
      </trkpt>
      <trkpt lat="46.92385" lon="4.69719">
        <ele>443.1</ele>
        <time>2015-05-19T12:14:35Z</time>
      </trkpt>
      <trkpt lat="46.92388" lon="4.69703">
        <ele>443.9</ele>
        <time>2015-05-19T12:14:40Z</time>
      </trkpt>
      <trkpt lat="46.92391" lon="4.69697">
        <ele>444.2</ele>
        <time>2015-05-19T12:14:42Z</time>
      </trkpt>
      <trkpt lat="46.92411" lon="4.69672">
        <ele>445.9</ele>
        <time>2015-05-19T12:14:54Z</time>
      </trkpt>
      <trkpt lat="46.92416" lon="4.69657">
        <ele>446.8</ele>
        <time>2015-05-19T12:14:59Z</time>
      </trkpt>
      <trkpt lat="46.92419" lon="4.69639">
        <ele>447.7</ele>
        <time>2015-05-19T12:15:05Z</time>
      </trkpt>
      <trkpt lat="46.9242" lon="4.69624">
        <ele>448.4</ele>
        <time>2015-05-19T12:15:09Z</time>
      </trkpt>
      <trkpt lat="46.92418" lon="4.69609">
        <ele>449.1</ele>
        <time>2015-05-19T12:15:14Z</time>
      </trkpt>
      <trkpt lat="46.92407" lon="4.69585">
        <ele>450.2</ele>
        <time>2015-05-19T12:15:23Z</time>
      </trkpt>
      <trkpt lat="46.92388" lon="4.69547">
        <ele>452.5</ele>
        <time>2015-05-19T12:15:37Z</time>
      </trkpt>
      <trkpt lat="46.92381" lon="4.69529">
        <ele>453.6</ele>
        <time>2015-05-19T12:15:43Z</time>
      </trkpt>
      <trkpt lat="46.92377" lon="4.69509">
        <ele>454.6</ele>
        <time>2015-05-19T12:15:50Z</time>
      </trkpt>
      <trkpt lat="46.924" lon="4.69483">
        <ele>455.8</ele>
        <time>2015-05-19T12:16:02Z</time>
      </trkpt>
      <trkpt lat="46.92395" lon="4.69465">
        <ele>456.7</ele>
        <time>2015-05-19T12:16:08Z</time>
      </trkpt>
      <trkpt lat="46.92362" lon="4.69362">
        <ele>461</ele>
        <time>2015-05-19T12:16:43Z</time>
      </trkpt>
      <trkpt lat="46.92351" lon="4.69322">
        <ele>462.6</ele>
        <time>2015-05-19T12:16:56Z</time>
      </trkpt>
      <trkpt lat="46.92345" lon="4.69302">
        <ele>463.6</ele>
        <time>2015-05-19T12:17:02Z</time>
      </trkpt>
      <trkpt lat="46.92334" lon="4.69284">
        <ele>464.4</ele>
        <time>2015-05-19T12:17:10Z</time>
      </trkpt>
      <trkpt lat="46.92327" lon="4.69263">
        <ele>465.6</ele>
        <time>2015-05-19T12:17:17Z</time>
      </trkpt>
      <trkpt lat="46.92316" lon="4.69214">
        <ele>468</ele>
        <time>2015-05-19T12:17:33Z</time>
      </trkpt>
      <trkpt lat="46.92306" lon="4.69187">
        <ele>469</ele>
        <time>2015-05-19T12:17:42Z</time>
      </trkpt>
      <trkpt lat="46.92284" lon="4.6918">
        <ele>468.5</ele>
        <time>2015-05-19T12:17:52Z</time>
      </trkpt>
      <trkpt lat="46.92264" lon="4.69165">
        <ele>468.7</ele>
        <time>2015-05-19T12:18:02Z</time>
      </trkpt>
      <trkpt lat="46.92239" lon="4.69126">
        <ele>469.2</ele>
        <time>2015-05-19T12:18:18Z</time>
      </trkpt>
      <trkpt lat="46.92223" lon="4.69095">
        <ele>468.5</ele>
        <time>2015-05-19T12:18:30Z</time>
      </trkpt>
      <trkpt lat="46.92211" lon="4.69067">
        <ele>468.5</ele>
        <time>2015-05-19T12:18:40Z</time>
      </trkpt>
      <trkpt lat="46.92205" lon="4.69034">
        <ele>469.9</ele>
        <time>2015-05-19T12:18:50Z</time>
      </trkpt>
      <trkpt lat="46.92203" lon="4.69014">
        <ele>471.3</ele>
        <time>2015-05-19T12:18:56Z</time>
      </trkpt>
      <trkpt lat="46.92203" lon="4.68988">
        <ele>473.1</ele>
        <time>2015-05-19T12:19:04Z</time>
      </trkpt>
      <trkpt lat="46.92205" lon="4.68961">
        <ele>473.6</ele>
        <time>2015-05-19T12:19:12Z</time>
      </trkpt>
      <trkpt lat="46.9221" lon="4.6893">
        <ele>474.6</ele>
        <time>2015-05-19T12:19:22Z</time>
      </trkpt>
      <trkpt lat="46.92227" lon="4.6886">
        <ele>477</ele>
        <time>2015-05-19T12:19:45Z</time>
      </trkpt>
      <trkpt lat="46.92233" lon="4.68828">
        <ele>478.6</ele>
        <time>2015-05-19T12:19:55Z</time>
      </trkpt>
      <trkpt lat="46.92245" lon="4.68761">
        <ele>481.2</ele>
        <time>2015-05-19T12:20:16Z</time>
      </trkpt>
      <trkpt lat="46.92233" lon="4.68737">
        <ele>479.8</ele>
        <time>2015-05-19T12:20:25Z</time>
      </trkpt>
      <trkpt lat="46.92222" lon="4.68724">
        <ele>478.7</ele>
        <time>2015-05-19T12:20:31Z</time>
      </trkpt>
      <trkpt lat="46.92211" lon="4.68695">
        <ele>477.3</ele>
        <time>2015-05-19T12:20:41Z</time>
      </trkpt>
      <trkpt lat="46.92199" lon="4.6866">
        <ele>474</ele>
        <time>2015-05-19T12:20:53Z</time>
      </trkpt>
      <trkpt lat="46.92196" lon="4.68646">
        <ele>472.6</ele>
        <time>2015-05-19T12:20:58Z</time>
      </trkpt>
      <trkpt lat="46.92192" lon="4.68614">
        <ele>471</ele>
        <time>2015-05-19T12:21:08Z</time>
      </trkpt>
      <trkpt lat="46.922" lon="4.68599">
        <ele>472.7</ele>
        <time>2015-05-19T12:21:13Z</time>
      </trkpt>
      <trkpt lat="46.92212" lon="4.68585">
        <ele>475.8</ele>
        <time>2015-05-19T12:21:20Z</time>
      </trkpt>
      <trkpt lat="46.92206" lon="4.68548">
        <ele>476.6</ele>
        <time>2015-05-19T12:21:31Z</time>
      </trkpt>
      <trkpt lat="46.92201" lon="4.68535">
        <ele>475.7</ele>
        <time>2015-05-19T12:21:36Z</time>
      </trkpt>
      <trkpt lat="46.92205" lon="4.68479">
        <ele>478.1</ele>
        <time>2015-05-19T12:21:53Z</time>
      </trkpt>
      <trkpt lat="46.92204" lon="4.6848">
        <ele>477.9</ele>
        <time>2015-05-19T12:21:54Z</time>
      </trkpt>
      <trkpt lat="46.92205" lon="4.68483">
        <ele>477.9</ele>
        <time>2015-05-19T12:21:55Z</time>
      </trkpt>
      <trkpt lat="46.92175" lon="4.68493">
        <ele>470</ele>
        <time>2015-05-19T12:22:09Z</time>
      </trkpt>
      <trkpt lat="46.92206" lon="4.6847">
        <ele>478.4</ele>
        <time>2015-05-19T12:22:24Z</time>
      </trkpt>
      <trkpt lat="46.92208" lon="4.68413">
        <ele>479.4</ele>
        <time>2015-05-19T12:22:42Z</time>
      </trkpt>
      <trkpt lat="46.92209" lon="4.68366">
        <ele>480.9</ele>
        <time>2015-05-19T12:22:56Z</time>
      </trkpt>
      <trkpt lat="46.9221" lon="4.68349">
        <ele>481.8</ele>
        <time>2015-05-19T12:23:01Z</time>
      </trkpt>
      <trkpt lat="46.92219" lon="4.68299">
        <ele>484</ele>
        <time>2015-05-19T12:23:17Z</time>
      </trkpt>
      <trkpt lat="46.92222" lon="4.68288">
        <ele>484.4</ele>
        <time>2015-05-19T12:23:20Z</time>
      </trkpt>
      <trkpt lat="46.92228" lon="4.68285">
        <ele>485.5</ele>
        <time>2015-05-19T12:23:23Z</time>
      </trkpt>
      <trkpt lat="46.92226" lon="4.68282">
        <ele>485.2</ele>
        <time>2015-05-19T12:23:24Z</time>
      </trkpt>
      <trkpt lat="46.92233" lon="4.68267">
        <ele>486.5</ele>
        <time>2015-05-19T12:23:30Z</time>
      </trkpt>
      <trkpt lat="46.92232" lon="4.68235">
        <ele>483.5</ele>
        <time>2015-05-19T12:23:39Z</time>
      </trkpt>
      <trkpt lat="46.92242" lon="4.68195">
        <ele>482.3</ele>
        <time>2015-05-19T12:23:52Z</time>
      </trkpt>
      <trkpt lat="46.92242" lon="4.68171">
        <ele>479</ele>
        <time>2015-05-19T12:24:00Z</time>
      </trkpt>
      <trkpt lat="46.92241" lon="4.68161">
        <ele>477.5</ele>
        <time>2015-05-19T12:24:03Z</time>
      </trkpt>
      <trkpt lat="46.92223" lon="4.68116">
        <ele>465.8</ele>
        <time>2015-05-19T12:24:19Z</time>
      </trkpt>
      <trkpt lat="46.92254" lon="4.68099">
        <ele>471.1</ele>
        <time>2015-05-19T12:24:33Z</time>
      </trkpt>
      <trkpt lat="46.92234" lon="4.68063">
        <ele>458</ele>
        <time>2015-05-19T12:24:48Z</time>
      </trkpt>
      <trkpt lat="46.92253" lon="4.68035">
        <ele>457.3</ele>
        <time>2015-05-19T12:25:00Z</time>
      </trkpt>
      <trkpt lat="46.92283" lon="4.68003">
        <ele>459.4</ele>
        <time>2015-05-19T12:25:16Z</time>
      </trkpt>
      <trkpt lat="46.92302" lon="4.67971">
        <ele>458.2</ele>
        <time>2015-05-19T12:25:29Z</time>
      </trkpt>
      <trkpt lat="46.92329" lon="4.67907">
        <ele>461.6</ele>
        <time>2015-05-19T12:25:52Z</time>
      </trkpt>
      <trkpt lat="46.9234" lon="4.67878">
        <ele>465.3</ele>
        <time>2015-05-19T12:26:02Z</time>
      </trkpt>
      <trkpt lat="46.92344" lon="4.67863">
        <ele>468.7</ele>
        <time>2015-05-19T12:26:07Z</time>
      </trkpt>
      <trkpt lat="46.92276" lon="4.67861">
        <ele>436.4</ele>
        <time>2015-05-19T12:26:37Z</time>
      </trkpt>
      <trkpt lat="46.92347" lon="4.67851">
        <ele>471.2</ele>
        <time>2015-05-19T12:27:09Z</time>
      </trkpt>
      <trkpt lat="46.92347" lon="4.67831">
        <ele>473.7</ele>
        <time>2015-05-19T12:27:15Z</time>
      </trkpt>
      <trkpt lat="46.92353" lon="4.67742">
        <ele>480.7</ele>
        <time>2015-05-19T12:27:42Z</time>
      </trkpt>
      <trkpt lat="46.92348" lon="4.67721">
        <ele>478.6</ele>
        <time>2015-05-19T12:27:49Z</time>
      </trkpt>
      <trkpt lat="46.92342" lon="4.6771">
        <ele>477</ele>
        <time>2015-05-19T12:27:53Z</time>
      </trkpt>
      <trkpt lat="46.92336" lon="4.67692">
        <ele>475.3</ele>
        <time>2015-05-19T12:27:59Z</time>
      </trkpt>
      <trkpt lat="46.92332" lon="4.67674">
        <ele>473.5</ele>
        <time>2015-05-19T12:28:05Z</time>
      </trkpt>
      <trkpt lat="46.92332" lon="4.67643">
        <ele>470.8</ele>
        <time>2015-05-19T12:28:14Z</time>
      </trkpt>
      <trkpt lat="46.92336" lon="4.67629">
        <ele>470.6</ele>
        <time>2015-05-19T12:28:19Z</time>
      </trkpt>
      <trkpt lat="46.92346" lon="4.67605">
        <ele>470.7</ele>
        <time>2015-05-19T12:28:28Z</time>
      </trkpt>
      <trkpt lat="46.9236" lon="4.67579">
        <ele>471.4</ele>
        <time>2015-05-19T12:28:38Z</time>
      </trkpt>
      <trkpt lat="46.92363" lon="4.6757">
        <ele>471.2</ele>
        <time>2015-05-19T12:28:41Z</time>
      </trkpt>
      <trkpt lat="46.92365" lon="4.67551">
        <ele>469.4</ele>
        <time>2015-05-19T12:28:47Z</time>
      </trkpt>
      <trkpt lat="46.92361" lon="4.6753">
        <ele>466.4</ele>
        <time>2015-05-19T12:28:53Z</time>
      </trkpt>
      <trkpt lat="46.92358" lon="4.67519">
        <ele>464.7</ele>
        <time>2015-05-19T12:28:57Z</time>
      </trkpt>
      <trkpt lat="46.92349" lon="4.67473">
        <ele>460.7</ele>
        <time>2015-05-19T12:29:11Z</time>
      </trkpt>
      <trkpt lat="46.92341" lon="4.67468">
        <ele>460.1</ele>
        <time>2015-05-19T12:29:15Z</time>
      </trkpt>
      <trkpt lat="46.9233" lon="4.67463">
        <ele>459.5</ele>
        <time>2015-05-19T12:29:20Z</time>
      </trkpt>
      <trkpt lat="46.9232" lon="4.67449">
        <ele>460</ele>
        <time>2015-05-19T12:29:26Z</time>
      </trkpt>
      <trkpt lat="46.92315" lon="4.6744">
        <ele>460.7</ele>
        <time>2015-05-19T12:29:30Z</time>
      </trkpt>
      <trkpt lat="46.923" lon="4.67428">
        <ele>461.6</ele>
        <time>2015-05-19T12:29:37Z</time>
      </trkpt>
      <trkpt lat="46.92289" lon="4.67416">
        <ele>463.1</ele>
        <time>2015-05-19T12:29:43Z</time>
      </trkpt>
      <trkpt lat="46.92272" lon="4.6739">
        <ele>465.2</ele>
        <time>2015-05-19T12:29:54Z</time>
      </trkpt>
      <trkpt lat="46.92258" lon="4.67357">
        <ele>468.4</ele>
        <time>2015-05-19T12:30:06Z</time>
      </trkpt>
      <trkpt lat="46.92249" lon="4.67341">
        <ele>469.9</ele>
        <time>2015-05-19T12:30:13Z</time>
      </trkpt>
      <trkpt lat="46.92223" lon="4.67307">
        <ele>471.8</ele>
        <time>2015-05-19T12:30:28Z</time>
      </trkpt>
      <trkpt lat="46.92214" lon="4.67293">
        <ele>472.2</ele>
        <time>2015-05-19T12:30:34Z</time>
      </trkpt>
      <trkpt lat="46.92205" lon="4.67286">
        <ele>472.3</ele>
        <time>2015-05-19T12:30:38Z</time>
      </trkpt>
      <trkpt lat="46.92194" lon="4.67268">
        <ele>472.9</ele>
        <time>2015-05-19T12:30:46Z</time>
      </trkpt>
      <trkpt lat="46.92184" lon="4.67238">
        <ele>473.6</ele>
        <time>2015-05-19T12:30:56Z</time>
      </trkpt>
      <trkpt lat="46.9217" lon="4.67175">
        <ele>478.6</ele>
        <time>2015-05-19T12:31:16Z</time>
      </trkpt>
      <trkpt lat="46.92133" lon="4.67064">
        <ele>491</ele>
        <time>2015-05-19T12:31:54Z</time>
      </trkpt>
      <trkpt lat="46.92126" lon="4.67049">
        <ele>493.7</ele>
        <time>2015-05-19T12:31:59Z</time>
      </trkpt>
      <trkpt lat="46.92113" lon="4.67024">
        <ele>500</ele>
        <time>2015-05-19T12:32:09Z</time>
      </trkpt>
      <trkpt lat="46.92085" lon="4.66992">
        <ele>507</ele>
        <time>2015-05-19T12:32:24Z</time>
      </trkpt>
      <trkpt lat="46.92079" lon="4.66981">
        <ele>508.2</ele>
        <time>2015-05-19T12:32:29Z</time>
      </trkpt>
      <trkpt lat="46.92066" lon="4.66986">
        <ele>510.4</ele>
        <time>2015-05-19T12:32:34Z</time>
      </trkpt>
      <trkpt lat="46.92009" lon="4.66965">
        <ele>518.5</ele>
        <time>2015-05-19T12:33:01Z</time>
      </trkpt>
      <trkpt lat="46.9197" lon="4.66942">
        <ele>521.3</ele>
        <time>2015-05-19T12:33:19Z</time>
      </trkpt>
      <trkpt lat="46.91948" lon="4.66923">
        <ele>516.5</ele>
        <time>2015-05-19T12:33:31Z</time>
      </trkpt>
      <trkpt lat="46.91978" lon="4.66947">
        <ele>521.2</ele>
        <time>2015-05-19T12:33:46Z</time>
      </trkpt>
      <trkpt lat="46.91946" lon="4.66922">
        <ele>516.2</ele>
        <time>2015-05-19T12:34:02Z</time>
      </trkpt>
      <trkpt lat="46.91933" lon="4.66902">
        <ele>513.3</ele>
        <time>2015-05-19T12:34:10Z</time>
      </trkpt>
      <trkpt lat="46.91922" lon="4.6689">
        <ele>510.4</ele>
        <time>2015-05-19T12:34:16Z</time>
      </trkpt>
      <trkpt lat="46.91892" lon="4.66872">
        <ele>503.3</ele>
        <time>2015-05-19T12:34:30Z</time>
      </trkpt>
      <trkpt lat="46.91922" lon="4.66615">
        <ele>480.2</ele>
        <time>2015-05-19T12:35:50Z</time>
      </trkpt>
      <trkpt lat="46.91909" lon="4.6661">
        <ele>479.9</ele>
        <time>2015-05-19T12:35:55Z</time>
      </trkpt>
      <trkpt lat="46.91897" lon="4.66639">
        <ele>481.8</ele>
        <time>2015-05-19T12:36:06Z</time>
      </trkpt>
      <trkpt lat="46.91891" lon="4.66582">
        <ele>479.1</ele>
        <time>2015-05-19T12:36:23Z</time>
      </trkpt>
      <trkpt lat="46.9187" lon="4.66547">
        <ele>478.1</ele>
        <time>2015-05-19T12:36:37Z</time>
      </trkpt>
      <trkpt lat="46.91828" lon="4.66517">
        <ele>476.7</ele>
        <time>2015-05-19T12:36:58Z</time>
      </trkpt>
      <trkpt lat="46.918" lon="4.66479">
        <ele>474.2</ele>
        <time>2015-05-19T12:37:15Z</time>
      </trkpt>
      <trkpt lat="46.91777" lon="4.66428">
        <ele>471.1</ele>
        <time>2015-05-19T12:37:34Z</time>
      </trkpt>
      <trkpt lat="46.91753" lon="4.66373">
        <ele>468.4</ele>
        <time>2015-05-19T12:37:54Z</time>
      </trkpt>
      <trkpt lat="46.9174" lon="4.66325">
        <ele>466.1</ele>
        <time>2015-05-19T12:38:09Z</time>
      </trkpt>
      <trkpt lat="46.91724" lon="4.6629">
        <ele>464.5</ele>
        <time>2015-05-19T12:38:22Z</time>
      </trkpt>
      <trkpt lat="46.91715" lon="4.66265">
        <ele>463.4</ele>
        <time>2015-05-19T12:38:31Z</time>
      </trkpt>
      <trkpt lat="46.91719" lon="4.66248">
        <ele>462.3</ele>
        <time>2015-05-19T12:38:36Z</time>
      </trkpt>
      <trkpt lat="46.91751" lon="4.66159">
        <ele>454.7</ele>
        <time>2015-05-19T12:39:07Z</time>
      </trkpt>
      <trkpt lat="46.9177" lon="4.66125">
        <ele>451.6</ele>
        <time>2015-05-19T12:39:20Z</time>
      </trkpt>
      <trkpt lat="46.91822" lon="4.66093">
        <ele>446.8</ele>
        <time>2015-05-19T12:39:45Z</time>
      </trkpt>
      <trkpt lat="46.91838" lon="4.66085">
        <ele>445.6</ele>
        <time>2015-05-19T12:39:53Z</time>
      </trkpt>
      <trkpt lat="46.91864" lon="4.66078">
        <ele>444</ele>
        <time>2015-05-19T12:40:04Z</time>
      </trkpt>
      <trkpt lat="46.91888" lon="4.66057">
        <ele>440.7</ele>
        <time>2015-05-19T12:40:17Z</time>
      </trkpt>
      <trkpt lat="46.9189" lon="4.66024">
        <ele>437.5</ele>
        <time>2015-05-19T12:40:27Z</time>
      </trkpt>
      <trkpt lat="46.91883" lon="4.66011">
        <ele>435.7</ele>
        <time>2015-05-19T12:40:32Z</time>
      </trkpt>
      <trkpt lat="46.91845" lon="4.65981">
        <ele>431.6</ele>
        <time>2015-05-19T12:40:51Z</time>
      </trkpt>
      <trkpt lat="46.91822" lon="4.65951">
        <ele>427.8</ele>
        <time>2015-05-19T12:41:05Z</time>
      </trkpt>
      <trkpt lat="46.9181" lon="4.65916">
        <ele>425.2</ele>
        <time>2015-05-19T12:41:16Z</time>
      </trkpt>
      <trkpt lat="46.9181" lon="4.65896">
        <ele>423.3</ele>
        <time>2015-05-19T12:41:23Z</time>
      </trkpt>
      <trkpt lat="46.91817" lon="4.65837">
        <ele>419</ele>
        <time>2015-05-19T12:41:41Z</time>
      </trkpt>
      <trkpt lat="46.91828" lon="4.65799">
        <ele>416.8</ele>
        <time>2015-05-19T12:41:53Z</time>
      </trkpt>
      <trkpt lat="46.9185" lon="4.65733">
        <ele>412.8</ele>
        <time>2015-05-19T12:42:16Z</time>
      </trkpt>
      <trkpt lat="46.91881" lon="4.65647">
        <ele>408.3</ele>
        <time>2015-05-19T12:42:45Z</time>
      </trkpt>
      <trkpt lat="46.9188" lon="4.6562">
        <ele>407.2</ele>
        <time>2015-05-19T12:42:53Z</time>
      </trkpt>
      <trkpt lat="46.91866" lon="4.656">
        <ele>406.2</ele>
        <time>2015-05-19T12:43:02Z</time>
      </trkpt>
      <trkpt lat="46.91865" lon="4.65568">
        <ele>405.2</ele>
        <time>2015-05-19T12:43:12Z</time>
      </trkpt>
      <trkpt lat="46.91868" lon="4.65526">
        <ele>404</ele>
        <time>2015-05-19T12:43:25Z</time>
      </trkpt>
      <trkpt lat="46.91876" lon="4.65477">
        <ele>402.7</ele>
        <time>2015-05-19T12:43:40Z</time>
      </trkpt>
      <trkpt lat="46.91874" lon="4.65439">
        <ele>401.4</ele>
        <time>2015-05-19T12:43:51Z</time>
      </trkpt>
      <trkpt lat="46.9185" lon="4.6535">
        <ele>400.5</ele>
        <time>2015-05-19T12:44:21Z</time>
      </trkpt>
      <trkpt lat="46.91829" lon="4.65289">
        <ele>400</ele>
        <time>2015-05-19T12:44:41Z</time>
      </trkpt>
      <trkpt lat="46.91808" lon="4.65253">
        <ele>399.6</ele>
        <time>2015-05-19T12:44:56Z</time>
      </trkpt>
      <trkpt lat="46.91782" lon="4.65219">
        <ele>399</ele>
        <time>2015-05-19T12:45:11Z</time>
      </trkpt>
      <trkpt lat="46.9176" lon="4.65191">
        <ele>398.7</ele>
        <time>2015-05-19T12:45:24Z</time>
      </trkpt>
      <trkpt lat="46.91753" lon="4.65178">
        <ele>398.5</ele>
        <time>2015-05-19T12:45:29Z</time>
      </trkpt>
      <trkpt lat="46.91724" lon="4.65102">
        <ele>397.9</ele>
        <time>2015-05-19T12:45:55Z</time>
      </trkpt>
      <trkpt lat="46.91711" lon="4.65072">
        <ele>398</ele>
        <time>2015-05-19T12:46:07Z</time>
      </trkpt>
      <trkpt lat="46.91684" lon="4.65033">
        <ele>397.7</ele>
        <time>2015-05-19T12:46:23Z</time>
      </trkpt>
      <trkpt lat="46.9165" lon="4.64996">
        <ele>396.9</ele>
        <time>2015-05-19T12:46:42Z</time>
      </trkpt>
      <trkpt lat="46.91642" lon="4.64989">
        <ele>396.6</ele>
        <time>2015-05-19T12:46:46Z</time>
      </trkpt>
      <trkpt lat="46.91587" lon="4.64945">
        <ele>395.1</ele>
        <time>2015-05-19T12:47:14Z</time>
      </trkpt>
      <trkpt lat="46.91568" lon="4.64925">
        <ele>394.6</ele>
        <time>2015-05-19T12:47:25Z</time>
      </trkpt>
      <trkpt lat="46.91544" lon="4.64933">
        <ele>392</ele>
        <time>2015-05-19T12:47:36Z</time>
      </trkpt>
      <trkpt lat="46.91523" lon="4.64932">
        <ele>389.7</ele>
        <time>2015-05-19T12:47:45Z</time>
      </trkpt>
      <trkpt lat="46.91507" lon="4.64926">
        <ele>386.8</ele>
        <time>2015-05-19T12:47:52Z</time>
      </trkpt>
      <trkpt lat="46.91485" lon="4.64919">
        <ele>382.6</ele>
        <time>2015-05-19T12:48:02Z</time>
      </trkpt>
      <trkpt lat="46.91449" lon="4.64926">
        <ele>372.3</ele>
        <time>2015-05-19T12:48:18Z</time>
      </trkpt>
      <trkpt lat="46.91407" lon="4.64928">
        <ele>362.7</ele>
        <time>2015-05-19T12:48:37Z</time>
      </trkpt>
      <trkpt lat="46.91396" lon="4.64923">
        <ele>360.3</ele>
        <time>2015-05-19T12:48:42Z</time>
      </trkpt>
      <trkpt lat="46.91369" lon="4.64907">
        <ele>354.8</ele>
        <time>2015-05-19T12:48:55Z</time>
      </trkpt>
      <trkpt lat="46.91355" lon="4.64896">
        <ele>352.4</ele>
        <time>2015-05-19T12:49:02Z</time>
      </trkpt>
      <trkpt lat="46.91346" lon="4.64885">
        <ele>350.9</ele>
        <time>2015-05-19T12:49:07Z</time>
      </trkpt>
      <trkpt lat="46.91343" lon="4.64889">
        <ele>350.6</ele>
        <time>2015-05-19T12:49:09Z</time>
      </trkpt>
      <trkpt lat="46.91315" lon="4.64896">
        <ele>345.2</ele>
        <time>2015-05-19T12:49:22Z</time>
      </trkpt>
      <trkpt lat="46.91305" lon="4.64894">
        <ele>343</ele>
        <time>2015-05-19T12:49:26Z</time>
      </trkpt>
      <trkpt lat="46.91228" lon="4.64874">
        <ele>328.4</ele>
        <time>2015-05-19T12:50:01Z</time>
      </trkpt>
      <trkpt lat="46.91195" lon="4.64861">
        <ele>322.6</ele>
        <time>2015-05-19T12:50:16Z</time>
      </trkpt>
      <trkpt lat="46.91109" lon="4.6484">
        <ele>309.2</ele>
        <time>2015-05-19T12:50:55Z</time>
      </trkpt>
      <trkpt lat="46.91082" lon="4.64828">
        <ele>305.4</ele>
        <time>2015-05-19T12:51:08Z</time>
      </trkpt>
      <trkpt lat="46.91075" lon="4.64824">
        <ele>304.4</ele>
        <time>2015-05-19T12:51:11Z</time>
      </trkpt>
      <trkpt lat="46.9104" lon="4.64797">
        <ele>297.9</ele>
        <time>2015-05-19T12:51:28Z</time>
      </trkpt>
      <trkpt lat="46.91017" lon="4.64773">
        <ele>293.3</ele>
        <time>2015-05-19T12:51:41Z</time>
      </trkpt>
      <trkpt lat="46.91003" lon="4.64756">
        <ele>290.9</ele>
        <time>2015-05-19T12:51:49Z</time>
      </trkpt>
      <trkpt lat="46.90993" lon="4.64749">
        <ele>289.5</ele>
        <time>2015-05-19T12:51:54Z</time>
      </trkpt>
      <trkpt lat="46.90998" lon="4.64714">
        <ele>289.1</ele>
        <time>2015-05-19T12:52:05Z</time>
      </trkpt>
      <trkpt lat="46.90989" lon="4.64703">
        <ele>287.9</ele>
        <time>2015-05-19T12:52:10Z</time>
      </trkpt>
      <trkpt lat="46.90881" lon="4.64595">
        <ele>281</ele>
        <time>2015-05-19T12:53:08Z</time>
      </trkpt>
      <trkpt lat="46.90859" lon="4.6458">
        <ele>279.2</ele>
        <time>2015-05-19T12:53:19Z</time>
      </trkpt>
      <trkpt lat="46.90829" lon="4.64576">
        <ele>276.9</ele>
        <time>2015-05-19T12:53:32Z</time>
      </trkpt>
      <trkpt lat="46.90803" lon="4.64561">
        <ele>273.5</ele>
        <time>2015-05-19T12:53:45Z</time>
      </trkpt>
      <trkpt lat="46.90793" lon="4.64551">
        <ele>269.8</ele>
        <time>2015-05-19T12:53:50Z</time>
      </trkpt>
      <trkpt lat="46.90781" lon="4.64513">
        <ele>265.5</ele>
        <time>2015-05-19T12:54:03Z</time>
      </trkpt>
      <trkpt lat="46.90771" lon="4.64492">
        <ele>263</ele>
        <time>2015-05-19T12:54:10Z</time>
      </trkpt>
      <trkpt lat="46.90763" lon="4.64469">
        <ele>261.5</ele>
        <time>2015-05-19T12:54:18Z</time>
      </trkpt>
      <trkpt lat="46.90753" lon="4.64456">
        <ele>258.4</ele>
        <time>2015-05-19T12:54:24Z</time>
      </trkpt>
      <trkpt lat="46.90755" lon="4.64451">
        <ele>258.4</ele>
        <time>2015-05-19T12:54:26Z</time>
      </trkpt>
      <trkpt lat="46.90752" lon="4.64461">
        <ele>258.4</ele>
        <time>2015-05-19T12:54:29Z</time>
      </trkpt>
      <trkpt lat="46.90748" lon="4.64477">
        <ele>256.6</ele>
        <time>2015-05-19T12:54:34Z</time>
      </trkpt>
      <trkpt lat="46.90744" lon="4.64505">
        <ele>254.6</ele>
        <time>2015-05-19T12:54:43Z</time>
      </trkpt>
      <trkpt lat="46.90746" lon="4.64551">
        <ele>254</ele>
        <time>2015-05-19T12:54:57Z</time>
      </trkpt>
      <trkpt lat="46.90744" lon="4.64613">
        <ele>253.1</ele>
        <time>2015-05-19T12:55:16Z</time>
      </trkpt>
      <trkpt lat="46.90733" lon="4.64665">
        <ele>251.7</ele>
        <time>2015-05-19T12:55:32Z</time>
      </trkpt>
      <trkpt lat="46.90723" lon="4.64677">
        <ele>249</ele>
        <time>2015-05-19T12:55:38Z</time>
      </trkpt>
      <trkpt lat="46.9071" lon="4.6467">
        <ele>245.9</ele>
        <time>2015-05-19T12:55:44Z</time>
      </trkpt>
      <trkpt lat="46.907" lon="4.64674">
        <ele>246.5</ele>
        <time>2015-05-19T12:55:48Z</time>
      </trkpt>
      <trkpt lat="46.90681" lon="4.64689">
        <ele>247.2</ele>
        <time>2015-05-19T12:55:58Z</time>
      </trkpt>
      <trkpt lat="46.90656" lon="4.64742">
        <ele>249.6</ele>
        <time>2015-05-19T12:56:18Z</time>
      </trkpt>
      <trkpt lat="46.90633" lon="4.64799">
        <ele>250.9</ele>
        <time>2015-05-19T12:56:38Z</time>
      </trkpt>
      <trkpt lat="46.90627" lon="4.64832">
        <ele>249.8</ele>
        <time>2015-05-19T12:56:48Z</time>
      </trkpt>
      <trkpt lat="46.90626" lon="4.64875">
        <ele>247.5</ele>
        <time>2015-05-19T12:57:01Z</time>
      </trkpt>
      <trkpt lat="46.90625" lon="4.64892">
        <ele>246.8</ele>
        <time>2015-05-19T12:57:06Z</time>
      </trkpt>
      <trkpt lat="46.90616" lon="4.64931">
        <ele>247.3</ele>
        <time>2015-05-19T12:57:19Z</time>
      </trkpt>
      <trkpt lat="46.90606" lon="4.65004">
        <ele>249.9</ele>
        <time>2015-05-19T12:57:42Z</time>
      </trkpt>
      <trkpt lat="46.90601" lon="4.65018">
        <ele>251</ele>
        <time>2015-05-19T12:57:46Z</time>
      </trkpt>
      <trkpt lat="46.906" lon="4.65019">
        <ele>251.3</ele>
        <time>2015-05-19T12:57:47Z</time>
      </trkpt>
      <trkpt lat="46.90597" lon="4.65012">
        <ele>252.5</ele>
        <time>2015-05-19T12:57:49Z</time>
      </trkpt>
      <trkpt lat="46.90606" lon="4.65008">
        <ele>249.9</ele>
        <time>2015-05-19T12:57:53Z</time>
      </trkpt>
      <trkpt lat="46.90611" lon="4.64967">
        <ele>248.9</ele>
        <time>2015-05-19T12:58:06Z</time>
      </trkpt>
      <trkpt lat="46.90594" lon="4.64954">
        <ele>256.5</ele>
        <time>2015-05-19T12:58:15Z</time>
      </trkpt>
      <trkpt lat="46.90585" lon="4.64896">
        <ele>263.2</ele>
        <time>2015-05-19T12:58:33Z</time>
      </trkpt>
      <trkpt lat="46.90589" lon="4.6483">
        <ele>265.8</ele>
        <time>2015-05-19T12:58:53Z</time>
      </trkpt>
      <trkpt lat="46.9058" lon="4.64817">
        <ele>271.2</ele>
        <time>2015-05-19T12:58:59Z</time>
      </trkpt>
      <trkpt lat="46.90544" lon="4.648">
        <ele>278.9</ele>
        <time>2015-05-19T12:59:16Z</time>
      </trkpt>
      <trkpt lat="46.90473" lon="4.64775">
        <ele>289.6</ele>
        <time>2015-05-19T12:59:48Z</time>
      </trkpt>
      <trkpt lat="46.90462" lon="4.64767">
        <ele>290.8</ele>
        <time>2015-05-19T12:59:54Z</time>
      </trkpt>
      <trkpt lat="46.90452" lon="4.6476">
        <ele>291.8</ele>
        <time>2015-05-19T12:59:59Z</time>
      </trkpt>
      <trkpt lat="46.90427" lon="4.64735">
        <ele>293.6</ele>
        <time>2015-05-19T13:00:12Z</time>
      </trkpt>
      <trkpt lat="46.90415" lon="4.64717">
        <ele>294.1</ele>
        <time>2015-05-19T13:00:20Z</time>
      </trkpt>
      <trkpt lat="46.90403" lon="4.64693">
        <ele>294.5</ele>
        <time>2015-05-19T13:00:29Z</time>
      </trkpt>
      <trkpt lat="46.90389" lon="4.6467">
        <ele>295</ele>
        <time>2015-05-19T13:00:38Z</time>
      </trkpt>
      <trkpt lat="46.90325" lon="4.64576">
        <ele>297.8</ele>
        <time>2015-05-19T13:01:18Z</time>
      </trkpt>
      <trkpt lat="46.90316" lon="4.64585">
        <ele>298.5</ele>
        <time>2015-05-19T13:01:23Z</time>
      </trkpt>
      <trkpt lat="46.9031" lon="4.64593">
        <ele>298.8</ele>
        <time>2015-05-19T13:01:27Z</time>
      </trkpt>
      <trkpt lat="46.90282" lon="4.64621">
        <ele>300.4</ele>
        <time>2015-05-19T13:01:42Z</time>
      </trkpt>
      <trkpt lat="46.90253" lon="4.64661">
        <ele>299.4</ele>
        <time>2015-05-19T13:02:00Z</time>
      </trkpt>
      <trkpt lat="46.90246" lon="4.64666">
        <ele>299.1</ele>
        <time>2015-05-19T13:02:03Z</time>
      </trkpt>
      <trkpt lat="46.90227" lon="4.64671">
        <ele>298.9</ele>
        <time>2015-05-19T13:02:12Z</time>
      </trkpt>
      <trkpt lat="46.90223" lon="4.64669">
        <ele>299.1</ele>
        <time>2015-05-19T13:02:13Z</time>
      </trkpt>
      <trkpt lat="46.90192" lon="4.64671">
        <ele>299.3</ele>
        <time>2015-05-19T13:02:27Z</time>
      </trkpt>
      <trkpt lat="46.90064" lon="4.64732">
        <ele>306.6</ele>
        <time>2015-05-19T13:03:27Z</time>
      </trkpt>
      <trkpt lat="46.90022" lon="4.64746">
        <ele>308.1</ele>
        <time>2015-05-19T13:03:46Z</time>
      </trkpt>
      <trkpt lat="46.89995" lon="4.64751">
        <ele>309.5</ele>
        <time>2015-05-19T13:03:58Z</time>
      </trkpt>
      <trkpt lat="46.89974" lon="4.64752">
        <ele>310.3</ele>
        <time>2015-05-19T13:04:08Z</time>
      </trkpt>
      <trkpt lat="46.89969" lon="4.6475">
        <ele>310.6</ele>
        <time>2015-05-19T13:04:10Z</time>
      </trkpt>
      <trkpt lat="46.89949" lon="4.64739">
        <ele>312.8</ele>
        <time>2015-05-19T13:04:19Z</time>
      </trkpt>
      <trkpt lat="46.89929" lon="4.64726">
        <ele>315</ele>
        <time>2015-05-19T13:04:29Z</time>
      </trkpt>
      <trkpt lat="46.89911" lon="4.64713">
        <ele>317.2</ele>
        <time>2015-05-19T13:04:38Z</time>
      </trkpt>
      <trkpt lat="46.89903" lon="4.64693">
        <ele>320.1</ele>
        <time>2015-05-19T13:04:45Z</time>
      </trkpt>
      <trkpt lat="46.89893" lon="4.64678">
        <ele>321.9</ele>
        <time>2015-05-19T13:04:52Z</time>
      </trkpt>
      <trkpt lat="46.89869" lon="4.64646">
        <ele>325.2</ele>
        <time>2015-05-19T13:05:06Z</time>
      </trkpt>
      <trkpt lat="46.89857" lon="4.64626">
        <ele>327.4</ele>
        <time>2015-05-19T13:05:14Z</time>
      </trkpt>
      <trkpt lat="46.89846" lon="4.64604">
        <ele>329.8</ele>
        <time>2015-05-19T13:05:22Z</time>
      </trkpt>
      <trkpt lat="46.89829" lon="4.64559">
        <ele>334.4</ele>
        <time>2015-05-19T13:05:38Z</time>
      </trkpt>
      <trkpt lat="46.89816" lon="4.64515">
        <ele>339.5</ele>
        <time>2015-05-19T13:05:53Z</time>
      </trkpt>
      <trkpt lat="46.89801" lon="4.64466">
        <ele>344.2</ele>
        <time>2015-05-19T13:06:09Z</time>
      </trkpt>
      <trkpt lat="46.89795" lon="4.64453">
        <ele>345.3</ele>
        <time>2015-05-19T13:06:14Z</time>
      </trkpt>
      <trkpt lat="46.89765" lon="4.64393">
        <ele>349.2</ele>
        <time>2015-05-19T13:06:36Z</time>
      </trkpt>
      <trkpt lat="46.89757" lon="4.64378">
        <ele>349.7</ele>
        <time>2015-05-19T13:06:42Z</time>
      </trkpt>
      <trkpt lat="46.89726" lon="4.64328">
        <ele>351.7</ele>
        <time>2015-05-19T13:07:03Z</time>
      </trkpt>
      <trkpt lat="46.89712" lon="4.64297">
        <ele>353.5</ele>
        <time>2015-05-19T13:07:14Z</time>
      </trkpt>
      <trkpt lat="46.89626" lon="4.64144">
        <ele>365.7</ele>
        <time>2015-05-19T13:08:14Z</time>
      </trkpt>
      <trkpt lat="46.89613" lon="4.64126">
        <ele>366.8</ele>
        <time>2015-05-19T13:08:22Z</time>
      </trkpt>
      <trkpt lat="46.89603" lon="4.64106">
        <ele>368</ele>
        <time>2015-05-19T13:08:30Z</time>
      </trkpt>
      <trkpt lat="46.89598" lon="4.64086">
        <ele>369.3</ele>
        <time>2015-05-19T13:08:36Z</time>
      </trkpt>
      <trkpt lat="46.89602" lon="4.64062">
        <ele>371.9</ele>
        <time>2015-05-19T13:08:43Z</time>
      </trkpt>
      <trkpt lat="46.89607" lon="4.64045">
        <ele>373.9</ele>
        <time>2015-05-19T13:08:49Z</time>
      </trkpt>
      <trkpt lat="46.8961" lon="4.64027">
        <ele>375.8</ele>
        <time>2015-05-19T13:08:55Z</time>
      </trkpt>
      <trkpt lat="46.89615" lon="4.63962">
        <ele>383.8</ele>
        <time>2015-05-19T13:09:15Z</time>
      </trkpt>
      <trkpt lat="46.89615" lon="4.63895">
        <ele>391</ele>
        <time>2015-05-19T13:09:35Z</time>
      </trkpt>
      <trkpt lat="46.89609" lon="4.63838">
        <ele>395.6</ele>
        <time>2015-05-19T13:09:53Z</time>
      </trkpt>
      <trkpt lat="46.89599" lon="4.63789">
        <ele>398.2</ele>
        <time>2015-05-19T13:10:08Z</time>
      </trkpt>
      <trkpt lat="46.89584" lon="4.63735">
        <ele>400</ele>
        <time>2015-05-19T13:10:26Z</time>
      </trkpt>
      <trkpt lat="46.89577" lon="4.637">
        <ele>401.7</ele>
        <time>2015-05-19T13:10:37Z</time>
      </trkpt>
      <trkpt lat="46.8957" lon="4.63685">
        <ele>402.4</ele>
        <time>2015-05-19T13:10:42Z</time>
      </trkpt>
      <trkpt lat="46.89561" lon="4.63667">
        <ele>402.7</ele>
        <time>2015-05-19T13:10:49Z</time>
      </trkpt>
      <trkpt lat="46.89545" lon="4.63641">
        <ele>403.3</ele>
        <time>2015-05-19T13:11:00Z</time>
      </trkpt>
      <trkpt lat="46.89476" lon="4.63555">
        <ele>404.8</ele>
        <time>2015-05-19T13:11:40Z</time>
      </trkpt>
      <trkpt lat="46.89433" lon="4.63483">
        <ele>405.9</ele>
        <time>2015-05-19T13:12:09Z</time>
      </trkpt>
      <trkpt lat="46.89388" lon="4.63399">
        <ele>405.3</ele>
        <time>2015-05-19T13:12:42Z</time>
      </trkpt>
      <trkpt lat="46.89372" lon="4.6335">
        <ele>405.3</ele>
        <time>2015-05-19T13:12:58Z</time>
      </trkpt>
      <trkpt lat="46.89366" lon="4.63304">
        <ele>405.9</ele>
        <time>2015-05-19T13:13:12Z</time>
      </trkpt>
      <trkpt lat="46.8937" lon="4.6327">
        <ele>406.5</ele>
        <time>2015-05-19T13:13:23Z</time>
      </trkpt>
      <trkpt lat="46.89411" lon="4.63186">
        <ele>407.2</ele>
        <time>2015-05-19T13:13:54Z</time>
      </trkpt>
      <trkpt lat="46.89431" lon="4.63131">
        <ele>406.9</ele>
        <time>2015-05-19T13:14:13Z</time>
      </trkpt>
      <trkpt lat="46.89439" lon="4.63084">
        <ele>406.8</ele>
        <time>2015-05-19T13:14:28Z</time>
      </trkpt>
      <trkpt lat="46.89438" lon="4.63029">
        <ele>406</ele>
        <time>2015-05-19T13:14:45Z</time>
      </trkpt>
      <trkpt lat="46.89431" lon="4.62932">
        <ele>406</ele>
        <time>2015-05-19T13:15:14Z</time>
      </trkpt>
      <trkpt lat="46.89424" lon="4.62893">
        <ele>406</ele>
        <time>2015-05-19T13:15:26Z</time>
      </trkpt>
      <trkpt lat="46.8941" lon="4.62837">
        <ele>405.3</ele>
        <time>2015-05-19T13:15:45Z</time>
      </trkpt>
      <trkpt lat="46.89406" lon="4.6282">
        <ele>405.1</ele>
        <time>2015-05-19T13:15:50Z</time>
      </trkpt>
      <trkpt lat="46.89422" lon="4.62822">
        <ele>405.4</ele>
        <time>2015-05-19T13:15:57Z</time>
      </trkpt>
      <trkpt lat="46.89435" lon="4.62819">
        <ele>405.7</ele>
        <time>2015-05-19T13:16:03Z</time>
      </trkpt>
      <trkpt lat="46.89446" lon="4.62812">
        <ele>406</ele>
        <time>2015-05-19T13:16:09Z</time>
      </trkpt>
      <trkpt lat="46.89479" lon="4.62785">
        <ele>406</ele>
        <time>2015-05-19T13:16:25Z</time>
      </trkpt>
      <trkpt lat="46.89509" lon="4.62766">
        <ele>406.4</ele>
        <time>2015-05-19T13:16:40Z</time>
      </trkpt>
      <trkpt lat="46.89528" lon="4.62761">
        <ele>406.7</ele>
        <time>2015-05-19T13:16:48Z</time>
      </trkpt>
      <trkpt lat="46.89547" lon="4.62763">
        <ele>406.9</ele>
        <time>2015-05-19T13:16:57Z</time>
      </trkpt>
      <trkpt lat="46.89587" lon="4.62763">
        <ele>406.8</ele>
        <time>2015-05-19T13:17:15Z</time>
      </trkpt>
      <trkpt lat="46.8961" lon="4.62773">
        <ele>406.4</ele>
        <time>2015-05-19T13:17:25Z</time>
      </trkpt>
      <trkpt lat="46.89629" lon="4.62785">
        <ele>406.2</ele>
        <time>2015-05-19T13:17:35Z</time>
      </trkpt>
      <trkpt lat="46.89638" lon="4.62781">
        <ele>406.1</ele>
        <time>2015-05-19T13:17:39Z</time>
      </trkpt>
      <trkpt lat="46.89695" lon="4.62738">
        <ele>406</ele>
        <time>2015-05-19T13:18:08Z</time>
      </trkpt>
      <trkpt lat="46.8974" lon="4.62702">
        <ele>406</ele>
        <time>2015-05-19T13:18:30Z</time>
      </trkpt>
      <trkpt lat="46.89802" lon="4.62639">
        <ele>406</ele>
        <time>2015-05-19T13:19:04Z</time>
      </trkpt>
      <trkpt lat="46.8985" lon="4.62593">
        <ele>406</ele>
        <time>2015-05-19T13:19:29Z</time>
      </trkpt>
      <trkpt lat="46.8988" lon="4.62553">
        <ele>405.5</ele>
        <time>2015-05-19T13:19:47Z</time>
      </trkpt>
      <trkpt lat="46.89893" lon="4.62529">
        <ele>405.1</ele>
        <time>2015-05-19T13:19:57Z</time>
      </trkpt>
      <trkpt lat="46.89947" lon="4.6234">
        <ele>404.5</ele>
        <time>2015-05-19T13:20:59Z</time>
      </trkpt>
      <trkpt lat="46.8999" lon="4.622">
        <ele>407.6</ele>
        <time>2015-05-19T13:21:46Z</time>
      </trkpt>
      <trkpt lat="46.9001" lon="4.62125">
        <ele>412.2</ele>
        <time>2015-05-19T13:22:10Z</time>
      </trkpt>
      <trkpt lat="46.90018" lon="4.62102">
        <ele>413.6</ele>
        <time>2015-05-19T13:22:18Z</time>
      </trkpt>
      <trkpt lat="46.90041" lon="4.62034">
        <ele>417.4</ele>
        <time>2015-05-19T13:22:41Z</time>
      </trkpt>
      <trkpt lat="46.90052" lon="4.62006">
        <ele>418.7</ele>
        <time>2015-05-19T13:22:51Z</time>
      </trkpt>
      <trkpt lat="46.90113" lon="4.61881">
        <ele>427.7</ele>
        <time>2015-05-19T13:23:38Z</time>
      </trkpt>
      <trkpt lat="46.90121" lon="4.61861">
        <ele>430.4</ele>
        <time>2015-05-19T13:23:45Z</time>
      </trkpt>
      <trkpt lat="46.90134" lon="4.61816">
        <ele>438.1</ele>
        <time>2015-05-19T13:23:59Z</time>
      </trkpt>
      <trkpt lat="46.90127" lon="4.61674">
        <ele>464.2</ele>
        <time>2015-05-19T13:24:43Z</time>
      </trkpt>
      <trkpt lat="46.90124" lon="4.61647">
        <ele>466.8</ele>
        <time>2015-05-19T13:24:51Z</time>
      </trkpt>
      <trkpt lat="46.90122" lon="4.61611">
        <ele>470.6</ele>
        <time>2015-05-19T13:25:02Z</time>
      </trkpt>
      <trkpt lat="46.90127" lon="4.61579">
        <ele>475.1</ele>
        <time>2015-05-19T13:25:12Z</time>
      </trkpt>
      <trkpt lat="46.90137" lon="4.61543">
        <ele>481.1</ele>
        <time>2015-05-19T13:25:24Z</time>
      </trkpt>
      <trkpt lat="46.90143" lon="4.6153">
        <ele>483.3</ele>
        <time>2015-05-19T13:25:29Z</time>
      </trkpt>
      <trkpt lat="46.90157" lon="4.61502">
        <ele>487.8</ele>
        <time>2015-05-19T13:25:39Z</time>
      </trkpt>
      <trkpt lat="46.90171" lon="4.61482">
        <ele>491.5</ele>
        <time>2015-05-19T13:25:48Z</time>
      </trkpt>
      <trkpt lat="46.90177" lon="4.61472">
        <ele>493.2</ele>
        <time>2015-05-19T13:25:52Z</time>
      </trkpt>
      <trkpt lat="46.90176" lon="4.61469">
        <ele>493.2</ele>
        <time>2015-05-19T13:25:53Z</time>
      </trkpt>
      <trkpt lat="46.90189" lon="4.61453">
        <ele>496.7</ele>
        <time>2015-05-19T13:26:01Z</time>
      </trkpt>
      <trkpt lat="46.90193" lon="4.61437">
        <ele>498.8</ele>
        <time>2015-05-19T13:26:06Z</time>
      </trkpt>
      <trkpt lat="46.90194" lon="4.6141">
        <ele>501.3</ele>
        <time>2015-05-19T13:26:14Z</time>
      </trkpt>
      <trkpt lat="46.90198" lon="4.61385">
        <ele>503.8</ele>
        <time>2015-05-19T13:26:22Z</time>
      </trkpt>
      <trkpt lat="46.90208" lon="4.61366">
        <ele>506.9</ele>
        <time>2015-05-19T13:26:29Z</time>
      </trkpt>
      <trkpt lat="46.90217" lon="4.61358">
        <ele>509.1</ele>
        <time>2015-05-19T13:26:34Z</time>
      </trkpt>
      <trkpt lat="46.90229" lon="4.61357">
        <ele>511.4</ele>
        <time>2015-05-19T13:26:39Z</time>
      </trkpt>
      <trkpt lat="46.90238" lon="4.6136">
        <ele>512.7</ele>
        <time>2015-05-19T13:26:43Z</time>
      </trkpt>
      <trkpt lat="46.90305" lon="4.61385">
        <ele>519.8</ele>
        <time>2015-05-19T13:27:14Z</time>
      </trkpt>
      <trkpt lat="46.90324" lon="4.61383">
        <ele>520.9</ele>
        <time>2015-05-19T13:27:22Z</time>
      </trkpt>
      <trkpt lat="46.90356" lon="4.61357">
        <ele>520.6</ele>
        <time>2015-05-19T13:27:39Z</time>
      </trkpt>
      <trkpt lat="46.90458" lon="4.61221">
        <ele>521.8</ele>
        <time>2015-05-19T13:28:40Z</time>
      </trkpt>
      <trkpt lat="46.90467" lon="4.61198">
        <ele>523.2</ele>
        <time>2015-05-19T13:28:48Z</time>
      </trkpt>
      <trkpt lat="46.90466" lon="4.61181">
        <ele>525.4</ele>
        <time>2015-05-19T13:28:53Z</time>
      </trkpt>
      <trkpt lat="46.9046" lon="4.61166">
        <ele>527.7</ele>
        <time>2015-05-19T13:28:58Z</time>
      </trkpt>
      <trkpt lat="46.90452" lon="4.61159">
        <ele>529</ele>
        <time>2015-05-19T13:29:03Z</time>
      </trkpt>
      <trkpt lat="46.90433" lon="4.61157">
        <ele>530.6</ele>
        <time>2015-05-19T13:29:11Z</time>
      </trkpt>
      <trkpt lat="46.90309" lon="4.61183">
        <ele>540.9</ele>
        <time>2015-05-19T13:30:07Z</time>
      </trkpt>
      <trkpt lat="46.90297" lon="4.61182">
        <ele>541.4</ele>
        <time>2015-05-19T13:30:12Z</time>
      </trkpt>
      <trkpt lat="46.90295" lon="4.61186">
        <ele>541.4</ele>
        <time>2015-05-19T13:30:14Z</time>
      </trkpt>
      <trkpt lat="46.90299" lon="4.61179">
        <ele>541.3</ele>
        <time>2015-05-19T13:30:16Z</time>
      </trkpt>
      <trkpt lat="46.90276" lon="4.61142">
        <ele>539.8</ele>
        <time>2015-05-19T13:30:31Z</time>
      </trkpt>
      <trkpt lat="46.90307" lon="4.61161">
        <ele>541.2</ele>
        <time>2015-05-19T13:30:46Z</time>
      </trkpt>
      <trkpt lat="46.90323" lon="4.61128">
        <ele>540</ele>
        <time>2015-05-19T13:30:58Z</time>
      </trkpt>
      <trkpt lat="46.90304" lon="4.61184">
        <ele>541.1</ele>
        <time>2015-05-19T13:31:17Z</time>
      </trkpt>
      <trkpt lat="46.90295" lon="4.61186">
        <ele>541.4</ele>
        <time>2015-05-19T13:31:21Z</time>
      </trkpt>
      <trkpt lat="46.90251" lon="4.61049">
        <ele>536.3</ele>
        <time>2015-05-19T13:32:07Z</time>
      </trkpt>
      <trkpt lat="46.90247" lon="4.61032">
        <ele>535.8</ele>
        <time>2015-05-19T13:32:12Z</time>
      </trkpt>
      <trkpt lat="46.90246" lon="4.61023">
        <ele>535.4</ele>
        <time>2015-05-19T13:32:15Z</time>
      </trkpt>
      <trkpt lat="46.90242" lon="4.61013">
        <ele>533.1</ele>
        <time>2015-05-19T13:32:19Z</time>
      </trkpt>
      <trkpt lat="46.90238" lon="4.60993">
        <ele>530.4</ele>
        <time>2015-05-19T13:32:25Z</time>
      </trkpt>
      <trkpt lat="46.90233" lon="4.60976">
        <ele>527.6</ele>
        <time>2015-05-19T13:32:31Z</time>
      </trkpt>
      <trkpt lat="46.90232" lon="4.6097">
        <ele>526.8</ele>
        <time>2015-05-19T13:32:33Z</time>
      </trkpt>
      <trkpt lat="46.90232" lon="4.60959">
        <ele>526.3</ele>
        <time>2015-05-19T13:32:36Z</time>
      </trkpt>
      <trkpt lat="46.90244" lon="4.6094">
        <ele>526.4</ele>
        <time>2015-05-19T13:32:43Z</time>
      </trkpt>
      <trkpt lat="46.9025" lon="4.60924">
        <ele>525.2</ele>
        <time>2015-05-19T13:32:49Z</time>
      </trkpt>
      <trkpt lat="46.90255" lon="4.60919">
        <ele>524.7</ele>
        <time>2015-05-19T13:32:52Z</time>
      </trkpt>
      <trkpt lat="46.90265" lon="4.60914">
        <ele>524.5</ele>
        <time>2015-05-19T13:32:57Z</time>
      </trkpt>
      <trkpt lat="46.90266" lon="4.60901">
        <ele>522.2</ele>
        <time>2015-05-19T13:33:01Z</time>
      </trkpt>
      <trkpt lat="46.90265" lon="4.60898">
        <ele>521.7</ele>
        <time>2015-05-19T13:33:02Z</time>
      </trkpt>
      <trkpt lat="46.90268" lon="4.60879">
        <ele>517.5</ele>
        <time>2015-05-19T13:33:07Z</time>
      </trkpt>
      <trkpt lat="46.90266" lon="4.60868">
        <ele>514.6</ele>
        <time>2015-05-19T13:33:11Z</time>
      </trkpt>
      <trkpt lat="46.90251" lon="4.60861">
        <ele>512.2</ele>
        <time>2015-05-19T13:33:18Z</time>
      </trkpt>
      <trkpt lat="46.90244" lon="4.60854">
        <ele>509.2</ele>
        <time>2015-05-19T13:33:22Z</time>
      </trkpt>
      <trkpt lat="46.90242" lon="4.60842">
        <ele>506.1</ele>
        <time>2015-05-19T13:33:25Z</time>
      </trkpt>
      <trkpt lat="46.90245" lon="4.6082">
        <ele>501.8</ele>
        <time>2015-05-19T13:33:32Z</time>
      </trkpt>
      <trkpt lat="46.90254" lon="4.60815">
        <ele>501.6</ele>
        <time>2015-05-19T13:33:36Z</time>
      </trkpt>
      <trkpt lat="46.90257" lon="4.60816">
        <ele>501.9</ele>
        <time>2015-05-19T13:33:37Z</time>
      </trkpt>
      <trkpt lat="46.9027" lon="4.60804">
        <ele>500.2</ele>
        <time>2015-05-19T13:33:45Z</time>
      </trkpt>
      <trkpt lat="46.90282" lon="4.60798">
        <ele>499.8</ele>
        <time>2015-05-19T13:33:50Z</time>
      </trkpt>
      <trkpt lat="46.90295" lon="4.608">
        <ele>500.9</ele>
        <time>2015-05-19T13:33:56Z</time>
      </trkpt>
      <trkpt lat="46.90304" lon="4.60798">
        <ele>501.2</ele>
        <time>2015-05-19T13:34:00Z</time>
      </trkpt>
      <trkpt lat="46.90308" lon="4.60793">
        <ele>500.8</ele>
        <time>2015-05-19T13:34:02Z</time>
      </trkpt>
      <trkpt lat="46.90331" lon="4.60781">
        <ele>500.8</ele>
        <time>2015-05-19T13:34:13Z</time>
      </trkpt>
      <trkpt lat="46.90334" lon="4.60779">
        <ele>500.7</ele>
        <time>2015-05-19T13:34:15Z</time>
      </trkpt>
      <trkpt lat="46.90342" lon="4.60771">
        <ele>499.8</ele>
        <time>2015-05-19T13:34:19Z</time>
      </trkpt>
      <trkpt lat="46.90356" lon="4.6075">
        <ele>497.8</ele>
        <time>2015-05-19T13:34:28Z</time>
      </trkpt>
      <trkpt lat="46.90362" lon="4.60746">
        <ele>497.7</ele>
        <time>2015-05-19T13:34:31Z</time>
      </trkpt>
      <trkpt lat="46.90374" lon="4.60745">
        <ele>498.4</ele>
        <time>2015-05-19T13:34:36Z</time>
      </trkpt>
      <trkpt lat="46.90376" lon="4.60742">
        <ele>498.1</ele>
        <time>2015-05-19T13:34:37Z</time>
      </trkpt>
      <trkpt lat="46.9038" lon="4.60739">
        <ele>498</ele>
        <time>2015-05-19T13:34:39Z</time>
      </trkpt>
      <trkpt lat="46.90388" lon="4.60738">
        <ele>498.4</ele>
        <time>2015-05-19T13:34:43Z</time>
      </trkpt>
      <trkpt lat="46.90463" lon="4.60776">
        <ele>503.6</ele>
        <time>2015-05-19T13:35:18Z</time>
      </trkpt>
      <trkpt lat="46.90406" lon="4.60735">
        <ele>498.1</ele>
        <time>2015-05-19T13:35:46Z</time>
      </trkpt>
      <trkpt lat="46.90414" lon="4.6074">
        <ele>498.9</ele>
        <time>2015-05-19T13:35:50Z</time>
      </trkpt>
      <trkpt lat="46.90418" lon="4.60738">
        <ele>498.6</ele>
        <time>2015-05-19T13:35:52Z</time>
      </trkpt>
      <trkpt lat="46.90464" lon="4.60773">
        <ele>503</ele>
        <time>2015-05-19T13:36:15Z</time>
      </trkpt>
      <trkpt lat="46.90437" lon="4.60746">
        <ele>499.9</ele>
        <time>2015-05-19T13:36:30Z</time>
      </trkpt>
      <trkpt lat="46.90456" lon="4.60764">
        <ele>501.8</ele>
        <time>2015-05-19T13:36:40Z</time>
      </trkpt>
      <trkpt lat="46.90466" lon="4.60769">
        <ele>502.1</ele>
        <time>2015-05-19T13:36:44Z</time>
      </trkpt>
      <trkpt lat="46.90473" lon="4.60754">
        <ele>499.5</ele>
        <time>2015-05-19T13:36:50Z</time>
      </trkpt>
      <trkpt lat="46.9048" lon="4.60731">
        <ele>495.7</ele>
        <time>2015-05-19T13:36:57Z</time>
      </trkpt>
      <trkpt lat="46.90486" lon="4.60701">
        <ele>491.3</ele>
        <time>2015-05-19T13:37:07Z</time>
      </trkpt>
      <trkpt lat="46.90494" lon="4.60651">
        <ele>485.1</ele>
        <time>2015-05-19T13:37:23Z</time>
      </trkpt>
      <trkpt lat="46.90493" lon="4.60619">
        <ele>481.3</ele>
        <time>2015-05-19T13:37:32Z</time>
      </trkpt>
      <trkpt lat="46.90483" lon="4.60563">
        <ele>474.6</ele>
        <time>2015-05-19T13:37:50Z</time>
      </trkpt>
      <trkpt lat="46.90469" lon="4.60509">
        <ele>467.7</ele>
        <time>2015-05-19T13:38:07Z</time>
      </trkpt>
      <trkpt lat="46.90455" lon="4.60446">
        <ele>458.4</ele>
        <time>2015-05-19T13:38:28Z</time>
      </trkpt>
      <trkpt lat="46.90447" lon="4.60397">
        <ele>451</ele>
        <time>2015-05-19T13:38:43Z</time>
      </trkpt>
      <trkpt lat="46.90435" lon="4.60321">
        <ele>440.1</ele>
        <time>2015-05-19T13:39:07Z</time>
      </trkpt>
      <trkpt lat="46.90429" lon="4.60262">
        <ele>432.8</ele>
        <time>2015-05-19T13:39:25Z</time>
      </trkpt>
      <trkpt lat="46.90426" lon="4.60202">
        <ele>425.9</ele>
        <time>2015-05-19T13:39:43Z</time>
      </trkpt>
      <trkpt lat="46.90429" lon="4.60141">
        <ele>420.3</ele>
        <time>2015-05-19T13:40:01Z</time>
      </trkpt>
      <trkpt lat="46.90439" lon="4.60064">
        <ele>414.1</ele>
        <time>2015-05-19T13:40:25Z</time>
      </trkpt>
      <trkpt lat="46.90451" lon="4.60013">
        <ele>409.8</ele>
        <time>2015-05-19T13:40:42Z</time>
      </trkpt>
      <trkpt lat="46.90458" lon="4.59991">
        <ele>407.4</ele>
        <time>2015-05-19T13:40:49Z</time>
      </trkpt>
      <trkpt lat="46.90487" lon="4.59893">
        <ele>400.4</ele>
        <time>2015-05-19T13:41:22Z</time>
      </trkpt>
      <trkpt lat="46.90498" lon="4.5986">
        <ele>398.7</ele>
        <time>2015-05-19T13:41:33Z</time>
      </trkpt>
      <trkpt lat="46.90528" lon="4.59821">
        <ele>391.2</ele>
        <time>2015-05-19T13:41:51Z</time>
      </trkpt>
      <trkpt lat="46.90612" lon="4.59727">
        <ele>378.5</ele>
        <time>2015-05-19T13:42:38Z</time>
      </trkpt>
      <trkpt lat="46.90664" lon="4.59685">
        <ele>376.4</ele>
        <time>2015-05-19T13:43:04Z</time>
      </trkpt>
      <trkpt lat="46.90696" lon="4.59656">
        <ele>375.8</ele>
        <time>2015-05-19T13:43:21Z</time>
      </trkpt>
      <trkpt lat="46.90736" lon="4.59638">
        <ele>374.8</ele>
        <time>2015-05-19T13:43:39Z</time>
      </trkpt>
      <trkpt lat="46.90803" lon="4.59623">
        <ele>372</ele>
        <time>2015-05-19T13:44:09Z</time>
      </trkpt>
      <trkpt lat="46.90828" lon="4.59613">
        <ele>371.5</ele>
        <time>2015-05-19T13:44:21Z</time>
      </trkpt>
      <trkpt lat="46.90853" lon="4.59583">
        <ele>371.5</ele>
        <time>2015-05-19T13:44:35Z</time>
      </trkpt>
      <trkpt lat="46.90857" lon="4.59585">
        <ele>371.6</ele>
        <time>2015-05-19T13:44:37Z</time>
      </trkpt>
      <trkpt lat="46.90863" lon="4.59573">
        <ele>371.5</ele>
        <time>2015-05-19T13:44:42Z</time>
      </trkpt>
      <trkpt lat="46.90886" lon="4.59486">
        <ele>373.6</ele>
        <time>2015-05-19T13:45:10Z</time>
      </trkpt>
      <trkpt lat="46.90895" lon="4.59455">
        <ele>376.7</ele>
        <time>2015-05-19T13:45:21Z</time>
      </trkpt>
      <trkpt lat="46.90908" lon="4.59422">
        <ele>381.4</ele>
        <time>2015-05-19T13:45:32Z</time>
      </trkpt>
      <trkpt lat="46.90915" lon="4.59413">
        <ele>382.6</ele>
        <time>2015-05-19T13:45:36Z</time>
      </trkpt>
      <trkpt lat="46.90933" lon="4.59404">
        <ele>383.7</ele>
        <time>2015-05-19T13:45:45Z</time>
      </trkpt>
      <trkpt lat="46.90961" lon="4.59396">
        <ele>384.6</ele>
        <time>2015-05-19T13:45:57Z</time>
      </trkpt>
      <trkpt lat="46.90992" lon="4.59383">
        <ele>386.1</ele>
        <time>2015-05-19T13:46:12Z</time>
      </trkpt>
      <trkpt lat="46.91075" lon="4.5934">
        <ele>390.3</ele>
        <time>2015-05-19T13:46:51Z</time>
      </trkpt>
      <trkpt lat="46.9109" lon="4.59329">
        <ele>391.5</ele>
        <time>2015-05-19T13:46:58Z</time>
      </trkpt>
      <trkpt lat="46.91106" lon="4.59312">
        <ele>393.3</ele>
        <time>2015-05-19T13:47:07Z</time>
      </trkpt>
      <trkpt lat="46.91177" lon="4.59229">
        <ele>400.9</ele>
        <time>2015-05-19T13:47:48Z</time>
      </trkpt>
      <trkpt lat="46.91198" lon="4.59209">
        <ele>402.6</ele>
        <time>2015-05-19T13:47:59Z</time>
      </trkpt>
      <trkpt lat="46.91265" lon="4.59185">
        <ele>405.4</ele>
        <time>2015-05-19T13:48:29Z</time>
      </trkpt>
      <trkpt lat="46.91286" lon="4.59172">
        <ele>407.3</ele>
        <time>2015-05-19T13:48:40Z</time>
      </trkpt>
      <trkpt lat="46.9133" lon="4.59144">
        <ele>410.3</ele>
        <time>2015-05-19T13:49:01Z</time>
      </trkpt>
      <trkpt lat="46.91339" lon="4.59139">
        <ele>410.8</ele>
        <time>2015-05-19T13:49:05Z</time>
      </trkpt>
      <trkpt lat="46.91359" lon="4.59126">
        <ele>411.9</ele>
        <time>2015-05-19T13:49:15Z</time>
      </trkpt>
      <trkpt lat="46.91374" lon="4.59115">
        <ele>413.1</ele>
        <time>2015-05-19T13:49:22Z</time>
      </trkpt>
      <trkpt lat="46.91385" lon="4.59106">
        <ele>413.4</ele>
        <time>2015-05-19T13:49:28Z</time>
      </trkpt>
      <trkpt lat="46.91403" lon="4.59087">
        <ele>413.5</ele>
        <time>2015-05-19T13:49:38Z</time>
      </trkpt>
      <trkpt lat="46.91419" lon="4.59052">
        <ele>415.7</ele>
        <time>2015-05-19T13:49:51Z</time>
      </trkpt>
      <trkpt lat="46.91438" lon="4.58969">
        <ele>421.1</ele>
        <time>2015-05-19T13:50:17Z</time>
      </trkpt>
      <trkpt lat="46.91445" lon="4.58944">
        <ele>422.5</ele>
        <time>2015-05-19T13:50:26Z</time>
      </trkpt>
      <trkpt lat="46.91452" lon="4.58929">
        <ele>423</ele>
        <time>2015-05-19T13:50:31Z</time>
      </trkpt>
      <trkpt lat="46.91479" lon="4.5889">
        <ele>426</ele>
        <time>2015-05-19T13:50:48Z</time>
      </trkpt>
      <trkpt lat="46.91498" lon="4.58864">
        <ele>427.4</ele>
        <time>2015-05-19T13:50:59Z</time>
      </trkpt>
      <trkpt lat="46.91516" lon="4.58847">
        <ele>428.2</ele>
        <time>2015-05-19T13:51:09Z</time>
      </trkpt>
      <trkpt lat="46.91525" lon="4.58843">
        <ele>428.7</ele>
        <time>2015-05-19T13:51:13Z</time>
      </trkpt>
      <trkpt lat="46.91544" lon="4.58844">
        <ele>429</ele>
        <time>2015-05-19T13:51:22Z</time>
      </trkpt>
      <trkpt lat="46.91579" lon="4.58851">
        <ele>429.8</ele>
        <time>2015-05-19T13:51:37Z</time>
      </trkpt>
      <trkpt lat="46.91596" lon="4.58849">
        <ele>430</ele>
        <time>2015-05-19T13:51:45Z</time>
      </trkpt>
      <trkpt lat="46.91606" lon="4.58846">
        <ele>430.8</ele>
        <time>2015-05-19T13:51:50Z</time>
      </trkpt>
      <trkpt lat="46.91608" lon="4.58866">
        <ele>431.1</ele>
        <time>2015-05-19T13:51:56Z</time>
      </trkpt>
      <trkpt lat="46.91605" lon="4.58879">
        <ele>431.5</ele>
        <time>2015-05-19T13:52:00Z</time>
      </trkpt>
      <trkpt lat="46.91597" lon="4.58895">
        <ele>432.1</ele>
        <time>2015-05-19T13:52:06Z</time>
      </trkpt>
      <trkpt lat="46.91592" lon="4.58897">
        <ele>432.1</ele>
        <time>2015-05-19T13:52:08Z</time>
      </trkpt>
      <trkpt lat="46.91596" lon="4.58896">
        <ele>432.2</ele>
        <time>2015-05-19T13:52:10Z</time>
      </trkpt>
      <trkpt lat="46.91602" lon="4.58909">
        <ele>432.6</ele>
        <time>2015-05-19T13:52:15Z</time>
      </trkpt>
      <trkpt lat="46.91615" lon="4.58926">
        <ele>432.9</ele>
        <time>2015-05-19T13:52:23Z</time>
      </trkpt>
      <trkpt lat="46.91664" lon="4.58973">
        <ele>433.3</ele>
        <time>2015-05-19T13:52:49Z</time>
      </trkpt>
      <trkpt lat="46.9173" lon="4.5902">
        <ele>433.6</ele>
        <time>2015-05-19T13:53:21Z</time>
      </trkpt>
      <trkpt lat="46.91765" lon="4.59065">
        <ele>435.4</ele>
        <time>2015-05-19T13:53:42Z</time>
      </trkpt>
      <trkpt lat="46.91803" lon="4.59092">
        <ele>436.7</ele>
        <time>2015-05-19T13:54:01Z</time>
      </trkpt>
      <trkpt lat="46.91818" lon="4.59101">
        <ele>437.1</ele>
        <time>2015-05-19T13:54:08Z</time>
      </trkpt>
      <trkpt lat="46.91835" lon="4.59117">
        <ele>437.8</ele>
        <time>2015-05-19T13:54:17Z</time>
      </trkpt>
      <trkpt lat="46.9187" lon="4.59159">
        <ele>439.6</ele>
        <time>2015-05-19T13:54:37Z</time>
      </trkpt>
      <trkpt lat="46.91903" lon="4.59173">
        <ele>440</ele>
        <time>2015-05-19T13:54:53Z</time>
      </trkpt>
      <trkpt lat="46.9192" lon="4.59188">
        <ele>440.8</ele>
        <time>2015-05-19T13:55:01Z</time>
      </trkpt>
      <trkpt lat="46.91941" lon="4.59206">
        <ele>441.9</ele>
        <time>2015-05-19T13:55:12Z</time>
      </trkpt>
      <trkpt lat="46.91962" lon="4.59222">
        <ele>442.6</ele>
        <time>2015-05-19T13:55:23Z</time>
      </trkpt>
      <trkpt lat="46.91988" lon="4.59238">
        <ele>443.1</ele>
        <time>2015-05-19T13:55:35Z</time>
      </trkpt>
      <trkpt lat="46.92011" lon="4.59249">
        <ele>443.5</ele>
        <time>2015-05-19T13:55:46Z</time>
      </trkpt>
      <trkpt lat="46.92054" lon="4.59265">
        <ele>444.1</ele>
        <time>2015-05-19T13:56:06Z</time>
      </trkpt>
      <trkpt lat="46.92109" lon="4.5928">
        <ele>444.5</ele>
        <time>2015-05-19T13:56:30Z</time>
      </trkpt>
      <trkpt lat="46.9213" lon="4.59287">
        <ele>444.7</ele>
        <time>2015-05-19T13:56:40Z</time>
      </trkpt>
      <trkpt lat="46.9218" lon="4.59308">
        <ele>445.2</ele>
        <time>2015-05-19T13:57:03Z</time>
      </trkpt>
      <trkpt lat="46.92188" lon="4.59312">
        <ele>445.4</ele>
        <time>2015-05-19T13:57:07Z</time>
      </trkpt>
      <trkpt lat="46.92212" lon="4.59329">
        <ele>445.8</ele>
        <time>2015-05-19T13:57:19Z</time>
      </trkpt>
      <trkpt lat="46.92232" lon="4.59347">
        <ele>446.5</ele>
        <time>2015-05-19T13:57:29Z</time>
      </trkpt>
      <trkpt lat="46.92294" lon="4.59434">
        <ele>447.8</ele>
        <time>2015-05-19T13:58:07Z</time>
      </trkpt>
      <trkpt lat="46.92315" lon="4.59461">
        <ele>448</ele>
        <time>2015-05-19T13:58:20Z</time>
      </trkpt>
      <trkpt lat="46.92339" lon="4.59483">
        <ele>448</ele>
        <time>2015-05-19T13:58:32Z</time>
      </trkpt>
      <trkpt lat="46.92358" lon="4.59498">
        <ele>448</ele>
        <time>2015-05-19T13:58:42Z</time>
      </trkpt>
      <trkpt lat="46.9241" lon="4.5953">
        <ele>448</ele>
        <time>2015-05-19T13:59:07Z</time>
      </trkpt>
      <trkpt lat="46.9248" lon="4.59563">
        <ele>447</ele>
        <time>2015-05-19T13:59:40Z</time>
      </trkpt>
      <trkpt lat="46.92564" lon="4.59593">
        <ele>446.4</ele>
        <time>2015-05-19T14:00:18Z</time>
      </trkpt>
      <trkpt lat="46.92515" lon="4.59575">
        <ele>447</ele>
        <time>2015-05-19T14:00:41Z</time>
      </trkpt>
      <trkpt lat="46.92512" lon="4.59577">
        <ele>447</ele>
        <time>2015-05-19T14:00:43Z</time>
      </trkpt>
      <trkpt lat="46.92509" lon="4.59612">
        <ele>447</ele>
        <time>2015-05-19T14:00:53Z</time>
      </trkpt>
      <trkpt lat="46.92503" lon="4.59667">
        <ele>447</ele>
        <time>2015-05-19T14:01:10Z</time>
      </trkpt>
      <trkpt lat="46.92494" lon="4.59737">
        <ele>446.1</ele>
        <time>2015-05-19T14:01:32Z</time>
      </trkpt>
      <trkpt lat="46.92492" lon="4.59752">
        <ele>445.4</ele>
        <time>2015-05-19T14:01:36Z</time>
      </trkpt>
      <trkpt lat="46.92492" lon="4.59786">
        <ele>443.7</ele>
        <time>2015-05-19T14:01:47Z</time>
      </trkpt>
      <trkpt lat="46.92495" lon="4.59823">
        <ele>441.5</ele>
        <time>2015-05-19T14:01:58Z</time>
      </trkpt>
      <trkpt lat="46.92509" lon="4.59931">
        <ele>435.3</ele>
        <time>2015-05-19T14:02:31Z</time>
      </trkpt>
      <trkpt lat="46.92508" lon="4.59944">
        <ele>434.3</ele>
        <time>2015-05-19T14:02:35Z</time>
      </trkpt>
      <trkpt lat="46.92503" lon="4.59976">
        <ele>431.4</ele>
        <time>2015-05-19T14:02:45Z</time>
      </trkpt>
      <trkpt lat="46.92496" lon="4.60009">
        <ele>428.9</ele>
        <time>2015-05-19T14:02:56Z</time>
      </trkpt>
      <trkpt lat="46.92483" lon="4.60048">
        <ele>427.6</ele>
        <time>2015-05-19T14:03:09Z</time>
      </trkpt>
      <trkpt lat="46.92474" lon="4.60068">
        <ele>427.1</ele>
        <time>2015-05-19T14:03:16Z</time>
      </trkpt>
      <trkpt lat="46.92467" lon="4.60099">
        <ele>425.8</ele>
        <time>2015-05-19T14:03:26Z</time>
      </trkpt>
      <trkpt lat="46.92467" lon="4.60126">
        <ele>425</ele>
        <time>2015-05-19T14:03:35Z</time>
      </trkpt>
      <trkpt lat="46.92472" lon="4.60151">
        <ele>424.5</ele>
        <time>2015-05-19T14:03:43Z</time>
      </trkpt>
      <trkpt lat="46.9248" lon="4.60166">
        <ele>424.4</ele>
        <time>2015-05-19T14:03:48Z</time>
      </trkpt>
      <trkpt lat="46.92491" lon="4.60195">
        <ele>423.7</ele>
        <time>2015-05-19T14:03:58Z</time>
      </trkpt>
      <trkpt lat="46.9251" lon="4.60285">
        <ele>423.2</ele>
        <time>2015-05-19T14:04:27Z</time>
      </trkpt>
      <trkpt lat="46.9252" lon="4.60292">
        <ele>423.8</ele>
        <time>2015-05-19T14:04:32Z</time>
      </trkpt>
      <trkpt lat="46.92512" lon="4.60293">
        <ele>423.4</ele>
        <time>2015-05-19T14:04:35Z</time>
      </trkpt>
      <trkpt lat="46.92552" lon="4.60283">
        <ele>425.2</ele>
        <time>2015-05-19T14:04:53Z</time>
      </trkpt>
      <trkpt lat="46.92572" lon="4.60276">
        <ele>425.6</ele>
        <time>2015-05-19T14:05:02Z</time>
      </trkpt>
      <trkpt lat="46.92601" lon="4.6026">
        <ele>426</ele>
        <time>2015-05-19T14:05:16Z</time>
      </trkpt>
      <trkpt lat="46.92627" lon="4.60239">
        <ele>426.8</ele>
        <time>2015-05-19T14:05:29Z</time>
      </trkpt>
      <trkpt lat="46.92679" lon="4.60204">
        <ele>427.7</ele>
        <time>2015-05-19T14:05:54Z</time>
      </trkpt>
      <trkpt lat="46.92704" lon="4.60192">
        <ele>428.2</ele>
        <time>2015-05-19T14:06:06Z</time>
      </trkpt>
      <trkpt lat="46.92725" lon="4.60177">
        <ele>428.5</ele>
        <time>2015-05-19T14:06:17Z</time>
      </trkpt>
      <trkpt lat="46.92766" lon="4.60139">
        <ele>430.3</ele>
        <time>2015-05-19T14:06:38Z</time>
      </trkpt>
      <trkpt lat="46.92785" lon="4.60126">
        <ele>432.2</ele>
        <time>2015-05-19T14:06:48Z</time>
      </trkpt>
      <trkpt lat="46.92787" lon="4.60136">
        <ele>431.1</ele>
        <time>2015-05-19T14:06:51Z</time>
      </trkpt>
      <trkpt lat="46.92785" lon="4.60183">
        <ele>428.9</ele>
        <time>2015-05-19T14:07:05Z</time>
      </trkpt>
      <trkpt lat="46.92785" lon="4.6022">
        <ele>428.2</ele>
        <time>2015-05-19T14:07:16Z</time>
      </trkpt>
      <trkpt lat="46.92787" lon="4.60271">
        <ele>429.7</ele>
        <time>2015-05-19T14:07:32Z</time>
      </trkpt>
      <trkpt lat="46.92784" lon="4.60335">
        <ele>431.7</ele>
        <time>2015-05-19T14:07:51Z</time>
      </trkpt>
      <trkpt lat="46.92782" lon="4.6049">
        <ele>440</ele>
        <time>2015-05-19T14:08:38Z</time>
      </trkpt>
      <trkpt lat="46.92779" lon="4.60528">
        <ele>443</ele>
        <time>2015-05-19T14:08:50Z</time>
      </trkpt>
      <trkpt lat="46.92771" lon="4.60556">
        <ele>445.6</ele>
        <time>2015-05-19T14:08:59Z</time>
      </trkpt>
      <trkpt lat="46.92769" lon="4.60597">
        <ele>449.5</ele>
        <time>2015-05-19T14:09:12Z</time>
      </trkpt>
      <trkpt lat="46.92766" lon="4.60617">
        <ele>451.9</ele>
        <time>2015-05-19T14:09:18Z</time>
      </trkpt>
      <trkpt lat="46.92767" lon="4.60655">
        <ele>456.3</ele>
        <time>2015-05-19T14:09:29Z</time>
      </trkpt>
      <trkpt lat="46.92764" lon="4.60703">
        <ele>462.2</ele>
        <time>2015-05-19T14:09:44Z</time>
      </trkpt>
      <trkpt lat="46.92757" lon="4.60735">
        <ele>466.2</ele>
        <time>2015-05-19T14:09:54Z</time>
      </trkpt>
      <trkpt lat="46.92749" lon="4.60758">
        <ele>470</ele>
        <time>2015-05-19T14:10:02Z</time>
      </trkpt>
      <trkpt lat="46.92757" lon="4.6077">
        <ele>471.8</ele>
        <time>2015-05-19T14:10:07Z</time>
      </trkpt>
      <trkpt lat="46.9277" lon="4.60791">
        <ele>475</ele>
        <time>2015-05-19T14:10:16Z</time>
      </trkpt>
      <trkpt lat="46.92781" lon="4.60818">
        <ele>479.3</ele>
        <time>2015-05-19T14:10:25Z</time>
      </trkpt>
      <trkpt lat="46.92788" lon="4.60843">
        <ele>484</ele>
        <time>2015-05-19T14:10:34Z</time>
      </trkpt>
      <trkpt lat="46.92792" lon="4.60861">
        <ele>487.6</ele>
        <time>2015-05-19T14:10:39Z</time>
      </trkpt>
      <trkpt lat="46.928" lon="4.60905">
        <ele>495.5</ele>
        <time>2015-05-19T14:10:53Z</time>
      </trkpt>
      <trkpt lat="46.92803" lon="4.60925">
        <ele>498.5</ele>
        <time>2015-05-19T14:10:59Z</time>
      </trkpt>
      <trkpt lat="46.92815" lon="4.60946">
        <ele>501.2</ele>
        <time>2015-05-19T14:11:08Z</time>
      </trkpt>
      <trkpt lat="46.92834" lon="4.60965">
        <ele>504.5</ele>
        <time>2015-05-19T14:11:18Z</time>
      </trkpt>
      <trkpt lat="46.92866" lon="4.61026">
        <ele>511.2</ele>
        <time>2015-05-19T14:11:41Z</time>
      </trkpt>
      <trkpt lat="46.9286" lon="4.61044">
        <ele>511.1</ele>
        <time>2015-05-19T14:11:47Z</time>
      </trkpt>
      <trkpt lat="46.92834" lon="4.60965">
        <ele>504.5</ele>
        <time>2015-05-19T14:12:14Z</time>
      </trkpt>
      <trkpt lat="46.92883" lon="4.61084">
        <ele>511.4</ele>
        <time>2015-05-19T14:12:56Z</time>
      </trkpt>
      <trkpt lat="46.92906" lon="4.61129">
        <ele>511.1</ele>
        <time>2015-05-19T14:13:13Z</time>
      </trkpt>
      <trkpt lat="46.92916" lon="4.6116">
        <ele>510.7</ele>
        <time>2015-05-19T14:13:24Z</time>
      </trkpt>
      <trkpt lat="46.9293" lon="4.61201">
        <ele>510</ele>
        <time>2015-05-19T14:13:38Z</time>
      </trkpt>
      <trkpt lat="46.92942" lon="4.61232">
        <ele>508.7</ele>
        <time>2015-05-19T14:13:48Z</time>
      </trkpt>
      <trkpt lat="46.92954" lon="4.61276">
        <ele>506.4</ele>
        <time>2015-05-19T14:14:03Z</time>
      </trkpt>
      <trkpt lat="46.92959" lon="4.61301">
        <ele>504.8</ele>
        <time>2015-05-19T14:14:11Z</time>
      </trkpt>
      <trkpt lat="46.9297" lon="4.61349">
        <ele>500.2</ele>
        <time>2015-05-19T14:14:26Z</time>
      </trkpt>
      <trkpt lat="46.93009" lon="4.6139">
        <ele>491.2</ele>
        <time>2015-05-19T14:14:48Z</time>
      </trkpt>
      <trkpt lat="46.93041" lon="4.61414">
        <ele>482.7</ele>
        <time>2015-05-19T14:15:04Z</time>
      </trkpt>
      <trkpt lat="46.93055" lon="4.61437">
        <ele>475.4</ele>
        <time>2015-05-19T14:15:13Z</time>
      </trkpt>
      <trkpt lat="46.93064" lon="4.61445">
        <ele>472.6</ele>
        <time>2015-05-19T14:15:18Z</time>
      </trkpt>
      <trkpt lat="46.93069" lon="4.61459">
        <ele>469</ele>
        <time>2015-05-19T14:15:23Z</time>
      </trkpt>
      <trkpt lat="46.93071" lon="4.61469">
        <ele>467</ele>
        <time>2015-05-19T14:15:26Z</time>
      </trkpt>
      <trkpt lat="46.93068" lon="4.61483">
        <ele>465.4</ele>
        <time>2015-05-19T14:15:30Z</time>
      </trkpt>
      <trkpt lat="46.93067" lon="4.61485">
        <ele>465.2</ele>
        <time>2015-05-19T14:15:31Z</time>
      </trkpt>
      <trkpt lat="46.93061" lon="4.61488">
        <ele>465.4</ele>
        <time>2015-05-19T14:15:34Z</time>
      </trkpt>
      <trkpt lat="46.93054" lon="4.61507">
        <ele>463.7</ele>
        <time>2015-05-19T14:15:40Z</time>
      </trkpt>
      <trkpt lat="46.93054" lon="4.61532">
        <ele>460.5</ele>
        <time>2015-05-19T14:15:48Z</time>
      </trkpt>
      <trkpt lat="46.93055" lon="4.6154">
        <ele>459.3</ele>
        <time>2015-05-19T14:15:50Z</time>
      </trkpt>
      <trkpt lat="46.93061" lon="4.61563">
        <ele>455.4</ele>
        <time>2015-05-19T14:15:58Z</time>
      </trkpt>
      <trkpt lat="46.93071" lon="4.61587">
        <ele>450.9</ele>
        <time>2015-05-19T14:16:06Z</time>
      </trkpt>
      <trkpt lat="46.93077" lon="4.61617">
        <ele>446.3</ele>
        <time>2015-05-19T14:16:16Z</time>
      </trkpt>
      <trkpt lat="46.93085" lon="4.6168">
        <ele>437.7</ele>
        <time>2015-05-19T14:16:35Z</time>
      </trkpt>
      <trkpt lat="46.931" lon="4.61761">
        <ele>426.6</ele>
        <time>2015-05-19T14:17:01Z</time>
      </trkpt>
      <trkpt lat="46.93091" lon="4.61771">
        <ele>425.2</ele>
        <time>2015-05-19T14:17:06Z</time>
      </trkpt>
      <trkpt lat="46.93077" lon="4.61789">
        <ele>422.6</ele>
        <time>2015-05-19T14:17:14Z</time>
      </trkpt>
      <trkpt lat="46.9303" lon="4.61817">
        <ele>419</ele>
        <time>2015-05-19T14:17:37Z</time>
      </trkpt>
      <trkpt lat="46.93012" lon="4.61833">
        <ele>416.9</ele>
        <time>2015-05-19T14:17:46Z</time>
      </trkpt>
      <trkpt lat="46.92997" lon="4.61867">
        <ele>412</ele>
        <time>2015-05-19T14:17:58Z</time>
      </trkpt>
      <trkpt lat="46.92994" lon="4.61948">
        <ele>401.3</ele>
        <time>2015-05-19T14:18:23Z</time>
      </trkpt>
      <trkpt lat="46.92988" lon="4.62047">
        <ele>389.8</ele>
        <time>2015-05-19T14:18:53Z</time>
      </trkpt>
      <trkpt lat="46.92978" lon="4.62115">
        <ele>382.3</ele>
        <time>2015-05-19T14:19:14Z</time>
      </trkpt>
      <trkpt lat="46.92975" lon="4.62155">
        <ele>378.3</ele>
        <time>2015-05-19T14:19:26Z</time>
      </trkpt>
      <trkpt lat="46.92974" lon="4.62228">
        <ele>370.6</ele>
        <time>2015-05-19T14:19:49Z</time>
      </trkpt>
      <trkpt lat="46.92981" lon="4.62248">
        <ele>368.6</ele>
        <time>2015-05-19T14:19:56Z</time>
      </trkpt>
      <trkpt lat="46.92989" lon="4.62257">
        <ele>368</ele>
        <time>2015-05-19T14:20:00Z</time>
      </trkpt>
      <trkpt lat="46.93004" lon="4.6229">
        <ele>366.1</ele>
        <time>2015-05-19T14:20:12Z</time>
      </trkpt>
      <trkpt lat="46.93018" lon="4.6234">
        <ele>362.2</ele>
        <time>2015-05-19T14:20:28Z</time>
      </trkpt>
      <trkpt lat="46.93074" lon="4.62521">
        <ele>346.2</ele>
        <time>2015-05-19T14:21:29Z</time>
      </trkpt>
      <trkpt lat="46.93086" lon="4.62553">
        <ele>344.6</ele>
        <time>2015-05-19T14:21:40Z</time>
      </trkpt>
      <trkpt lat="46.93138" lon="4.62708">
        <ele>335.5</ele>
        <time>2015-05-19T14:22:32Z</time>
      </trkpt>
      <trkpt lat="46.93145" lon="4.62751">
        <ele>329.3</ele>
        <time>2015-05-19T14:22:46Z</time>
      </trkpt>
      <trkpt lat="46.93145" lon="4.62759">
        <ele>328</ele>
        <time>2015-05-19T14:22:48Z</time>
      </trkpt>
      <trkpt lat="46.93128" lon="4.62812">
        <ele>321</ele>
        <time>2015-05-19T14:23:06Z</time>
      </trkpt>
      <trkpt lat="46.93122" lon="4.62846">
        <ele>315.2</ele>
        <time>2015-05-19T14:23:17Z</time>
      </trkpt>
      <trkpt lat="46.93123" lon="4.62873">
        <ele>310.8</ele>
        <time>2015-05-19T14:23:25Z</time>
      </trkpt>
      <trkpt lat="46.9313" lon="4.62931">
        <ele>301.7</ele>
        <time>2015-05-19T14:23:43Z</time>
      </trkpt>
      <trkpt lat="46.93115" lon="4.62964">
        <ele>297.1</ele>
        <time>2015-05-19T14:23:55Z</time>
      </trkpt>
      <trkpt lat="46.93136" lon="4.63077">
        <ele>287.7</ele>
        <time>2015-05-19T14:24:30Z</time>
      </trkpt>
      <trkpt lat="46.93135" lon="4.63089">
        <ele>287.5</ele>
        <time>2015-05-19T14:24:34Z</time>
      </trkpt>
      <trkpt lat="46.93124" lon="4.63093">
        <ele>287.4</ele>
        <time>2015-05-19T14:24:39Z</time>
      </trkpt>
      <trkpt lat="46.93113" lon="4.63095">
        <ele>287.5</ele>
        <time>2015-05-19T14:24:44Z</time>
      </trkpt>
      <trkpt lat="46.93103" lon="4.631">
        <ele>287.4</ele>
        <time>2015-05-19T14:24:49Z</time>
      </trkpt>
      <trkpt lat="46.93096" lon="4.63104">
        <ele>287.3</ele>
        <time>2015-05-19T14:24:52Z</time>
      </trkpt>
      <trkpt lat="46.93078" lon="4.6312">
        <ele>286.9</ele>
        <time>2015-05-19T14:25:02Z</time>
      </trkpt>
      <trkpt lat="46.93059" lon="4.63132">
        <ele>286.7</ele>
        <time>2015-05-19T14:25:11Z</time>
      </trkpt>
      <trkpt lat="46.93042" lon="4.63136">
        <ele>286.4</ele>
        <time>2015-05-19T14:25:19Z</time>
      </trkpt>
      <trkpt lat="46.93022" lon="4.63137">
        <ele>286.2</ele>
        <time>2015-05-19T14:25:27Z</time>
      </trkpt>
      <trkpt lat="46.92999" lon="4.63181">
        <ele>286.3</ele>
        <time>2015-05-19T14:25:44Z</time>
      </trkpt>
      <trkpt lat="46.93007" lon="4.63136">
        <ele>286.1</ele>
        <time>2015-05-19T14:25:58Z</time>
      </trkpt>
      <trkpt lat="46.93009" lon="4.6315">
        <ele>286.2</ele>
        <time>2015-05-19T14:26:02Z</time>
      </trkpt>
      <trkpt lat="46.93003" lon="4.63186">
        <ele>286.6</ele>
        <time>2015-05-19T14:26:14Z</time>
      </trkpt>
      <trkpt lat="46.93016" lon="4.63226">
        <ele>288.7</ele>
        <time>2015-05-19T14:26:27Z</time>
      </trkpt>
      <trkpt lat="46.93009" lon="4.63239">
        <ele>289.1</ele>
        <time>2015-05-19T14:26:32Z</time>
      </trkpt>
      <trkpt lat="46.92994" lon="4.63279">
        <ele>292.4</ele>
        <time>2015-05-19T14:26:46Z</time>
      </trkpt>
      <trkpt lat="46.92987" lon="4.63313">
        <ele>295.2</ele>
        <time>2015-05-19T14:26:57Z</time>
      </trkpt>
      <trkpt lat="46.92976" lon="4.63376">
        <ele>301.9</ele>
        <time>2015-05-19T14:27:17Z</time>
      </trkpt>
      <trkpt lat="46.92963" lon="4.63393">
        <ele>301.9</ele>
        <time>2015-05-19T14:27:24Z</time>
      </trkpt>
      <trkpt lat="46.92956" lon="4.63406">
        <ele>302.1</ele>
        <time>2015-05-19T14:27:30Z</time>
      </trkpt>
      <trkpt lat="46.9295" lon="4.63424">
        <ele>302.7</ele>
        <time>2015-05-19T14:27:36Z</time>
      </trkpt>
      <trkpt lat="46.92948" lon="4.6345">
        <ele>303.8</ele>
        <time>2015-05-19T14:27:44Z</time>
      </trkpt>
      <trkpt lat="46.92953" lon="4.63474">
        <ele>305.3</ele>
        <time>2015-05-19T14:27:51Z</time>
      </trkpt>
      <trkpt lat="46.92966" lon="4.63503">
        <ele>308.5</ele>
        <time>2015-05-19T14:28:02Z</time>
      </trkpt>
      <trkpt lat="46.92975" lon="4.63516">
        <ele>310.6</ele>
        <time>2015-05-19T14:28:08Z</time>
      </trkpt>
      <trkpt lat="46.93014" lon="4.63521">
        <ele>317.1</ele>
        <time>2015-05-19T14:28:25Z</time>
      </trkpt>
      <trkpt lat="46.93019" lon="4.63531">
        <ele>318.5</ele>
        <time>2015-05-19T14:28:29Z</time>
      </trkpt>
      <trkpt lat="46.93016" lon="4.63548">
        <ele>319.2</ele>
        <time>2015-05-19T14:28:34Z</time>
      </trkpt>
      <trkpt lat="46.93016" lon="4.63562">
        <ele>320.2</ele>
        <time>2015-05-19T14:28:38Z</time>
      </trkpt>
      <trkpt lat="46.93016" lon="4.6355">
        <ele>319.3</ele>
        <time>2015-05-19T14:28:41Z</time>
      </trkpt>
      <trkpt lat="46.93021" lon="4.63522">
        <ele>318.1</ele>
        <time>2015-05-19T14:28:50Z</time>
      </trkpt>
      <trkpt lat="46.9301" lon="4.63443">
        <ele>310.5</ele>
        <time>2015-05-19T14:29:15Z</time>
      </trkpt>
      <trkpt lat="46.9302" lon="4.63524">
        <ele>318.2</ele>
        <time>2015-05-19T14:29:39Z</time>
      </trkpt>
      <trkpt lat="46.93016" lon="4.63543">
        <ele>318.8</ele>
        <time>2015-05-19T14:29:46Z</time>
      </trkpt>
      <trkpt lat="46.93016" lon="4.63562">
        <ele>320.2</ele>
        <time>2015-05-19T14:29:52Z</time>
      </trkpt>
      <trkpt lat="46.93015" lon="4.63593">
        <ele>322.5</ele>
        <time>2015-05-19T14:30:01Z</time>
      </trkpt>
      <trkpt lat="46.93017" lon="4.63649">
        <ele>328.1</ele>
        <time>2015-05-19T14:30:18Z</time>
      </trkpt>
      <trkpt lat="46.93018" lon="4.63678">
        <ele>330.6</ele>
        <time>2015-05-19T14:30:27Z</time>
      </trkpt>
      <trkpt lat="46.93016" lon="4.63735">
        <ele>333.1</ele>
        <time>2015-05-19T14:30:44Z</time>
      </trkpt>
      <trkpt lat="46.93016" lon="4.63806">
        <ele>335.8</ele>
        <time>2015-05-19T14:31:06Z</time>
      </trkpt>
      <trkpt lat="46.93018" lon="4.63845">
        <ele>337.4</ele>
        <time>2015-05-19T14:31:17Z</time>
      </trkpt>
      <trkpt lat="46.9302" lon="4.6387">
        <ele>338</ele>
        <time>2015-05-19T14:31:25Z</time>
      </trkpt>
      <trkpt lat="46.93031" lon="4.63924">
        <ele>339.5</ele>
        <time>2015-05-19T14:31:42Z</time>
      </trkpt>
      <trkpt lat="46.93025" lon="4.63957">
        <ele>338.2</ele>
        <time>2015-05-19T14:31:53Z</time>
      </trkpt>
      <trkpt lat="46.93011" lon="4.64016">
        <ele>339.7</ele>
        <time>2015-05-19T14:32:12Z</time>
      </trkpt>
      <trkpt lat="46.93006" lon="4.64046">
        <ele>341.1</ele>
        <time>2015-05-19T14:32:21Z</time>
      </trkpt>
      <trkpt lat="46.93008" lon="4.64079">
        <ele>342.7</ele>
        <time>2015-05-19T14:32:31Z</time>
      </trkpt>
      <trkpt lat="46.93011" lon="4.64145">
        <ele>346.3</ele>
        <time>2015-05-19T14:32:51Z</time>
      </trkpt>
      <trkpt lat="46.93009" lon="4.64175">
        <ele>348.4</ele>
        <time>2015-05-19T14:33:00Z</time>
      </trkpt>
      <trkpt lat="46.93" lon="4.64193">
        <ele>350.4</ele>
        <time>2015-05-19T14:33:07Z</time>
      </trkpt>
      <trkpt lat="46.92979" lon="4.64204">
        <ele>352.5</ele>
        <time>2015-05-19T14:33:17Z</time>
      </trkpt>
      <trkpt lat="46.92939" lon="4.64246">
        <ele>359.1</ele>
        <time>2015-05-19T14:33:39Z</time>
      </trkpt>
      <trkpt lat="46.92926" lon="4.64252">
        <ele>360.6</ele>
        <time>2015-05-19T14:33:45Z</time>
      </trkpt>
      <trkpt lat="46.92913" lon="4.64256">
        <ele>361.8</ele>
        <time>2015-05-19T14:33:51Z</time>
      </trkpt>
      <trkpt lat="46.92868" lon="4.64254">
        <ele>364.1</ele>
        <time>2015-05-19T14:34:11Z</time>
      </trkpt>
      <trkpt lat="46.92854" lon="4.64254">
        <ele>364.5</ele>
        <time>2015-05-19T14:34:17Z</time>
      </trkpt>
      <trkpt lat="46.92839" lon="4.64265">
        <ele>366.3</ele>
        <time>2015-05-19T14:34:25Z</time>
      </trkpt>
      <trkpt lat="46.92823" lon="4.64281">
        <ele>367.4</ele>
        <time>2015-05-19T14:34:33Z</time>
      </trkpt>
      <trkpt lat="46.92811" lon="4.64293">
        <ele>367.8</ele>
        <time>2015-05-19T14:34:40Z</time>
      </trkpt>
      <trkpt lat="46.92797" lon="4.6431">
        <ele>368.5</ele>
        <time>2015-05-19T14:34:48Z</time>
      </trkpt>
      <trkpt lat="46.92792" lon="4.64313">
        <ele>368.6</ele>
        <time>2015-05-19T14:34:50Z</time>
      </trkpt>
      <trkpt lat="46.92782" lon="4.64325">
        <ele>369.8</ele>
        <time>2015-05-19T14:34:56Z</time>
      </trkpt>
      <trkpt lat="46.9277" lon="4.6433">
        <ele>370.3</ele>
        <time>2015-05-19T14:35:01Z</time>
      </trkpt>
      <trkpt lat="46.92756" lon="4.64329">
        <ele>370.4</ele>
        <time>2015-05-19T14:35:08Z</time>
      </trkpt>
      <trkpt lat="46.92748" lon="4.64311">
        <ele>369.1</ele>
        <time>2015-05-19T14:35:14Z</time>
      </trkpt>
      <trkpt lat="46.92744" lon="4.64291">
        <ele>368</ele>
        <time>2015-05-19T14:35:20Z</time>
      </trkpt>
      <trkpt lat="46.92741" lon="4.64268">
        <ele>366.9</ele>
        <time>2015-05-19T14:35:28Z</time>
      </trkpt>
      <trkpt lat="46.92736" lon="4.64246">
        <ele>366.3</ele>
        <time>2015-05-19T14:35:35Z</time>
      </trkpt>
      <trkpt lat="46.92724" lon="4.64217">
        <ele>366.4</ele>
        <time>2015-05-19T14:35:45Z</time>
      </trkpt>
      <trkpt lat="46.92716" lon="4.64204">
        <ele>366.3</ele>
        <time>2015-05-19T14:35:50Z</time>
      </trkpt>
      <trkpt lat="46.92704" lon="4.64168">
        <ele>364.8</ele>
        <time>2015-05-19T14:36:02Z</time>
      </trkpt>
      <trkpt lat="46.92693" lon="4.64143">
        <ele>363.8</ele>
        <time>2015-05-19T14:36:11Z</time>
      </trkpt>
      <trkpt lat="46.92674" lon="4.64109">
        <ele>363.1</ele>
        <time>2015-05-19T14:36:24Z</time>
      </trkpt>
      <trkpt lat="46.92657" lon="4.64086">
        <ele>362.6</ele>
        <time>2015-05-19T14:36:35Z</time>
      </trkpt>
      <trkpt lat="46.92638" lon="4.64067">
        <ele>362.2</ele>
        <time>2015-05-19T14:36:45Z</time>
      </trkpt>
      <trkpt lat="46.92626" lon="4.64068">
        <ele>363.1</ele>
        <time>2015-05-19T14:36:51Z</time>
      </trkpt>
      <trkpt lat="46.92598" lon="4.64076">
        <ele>364.2</ele>
        <time>2015-05-19T14:37:03Z</time>
      </trkpt>
      <trkpt lat="46.92578" lon="4.64091">
        <ele>365.4</ele>
        <time>2015-05-19T14:37:13Z</time>
      </trkpt>
      <trkpt lat="46.92553" lon="4.64121">
        <ele>367.6</ele>
        <time>2015-05-19T14:37:28Z</time>
      </trkpt>
      <trkpt lat="46.92528" lon="4.64197">
        <ele>370.8</ele>
        <time>2015-05-19T14:37:53Z</time>
      </trkpt>
      <trkpt lat="46.92524" lon="4.6423">
        <ele>372.4</ele>
        <time>2015-05-19T14:38:03Z</time>
      </trkpt>
      <trkpt lat="46.92515" lon="4.64257">
        <ele>373.7</ele>
        <time>2015-05-19T14:38:12Z</time>
      </trkpt>
      <trkpt lat="46.92509" lon="4.6427">
        <ele>374.2</ele>
        <time>2015-05-19T14:38:17Z</time>
      </trkpt>
      <trkpt lat="46.92492" lon="4.64286">
        <ele>374.2</ele>
        <time>2015-05-19T14:38:26Z</time>
      </trkpt>
      <trkpt lat="46.92481" lon="4.64293">
        <ele>374.1</ele>
        <time>2015-05-19T14:38:31Z</time>
      </trkpt>
      <trkpt lat="46.92446" lon="4.64309">
        <ele>373</ele>
        <time>2015-05-19T14:38:48Z</time>
      </trkpt>
      <trkpt lat="46.92417" lon="4.64299">
        <ele>369.8</ele>
        <time>2015-05-19T14:39:01Z</time>
      </trkpt>
      <trkpt lat="46.92411" lon="4.64309">
        <ele>369.1</ele>
        <time>2015-05-19T14:39:05Z</time>
      </trkpt>
      <trkpt lat="46.92387" lon="4.64384">
        <ele>370.1</ele>
        <time>2015-05-19T14:39:30Z</time>
      </trkpt>
      <trkpt lat="46.92359" lon="4.64468">
        <ele>369.6</ele>
        <time>2015-05-19T14:39:59Z</time>
      </trkpt>
      <trkpt lat="46.9235" lon="4.64494">
        <ele>368.8</ele>
        <time>2015-05-19T14:40:08Z</time>
      </trkpt>
      <trkpt lat="46.92345" lon="4.64525">
        <ele>368.9</ele>
        <time>2015-05-19T14:40:17Z</time>
      </trkpt>
      <trkpt lat="46.92341" lon="4.64601">
        <ele>370.7</ele>
        <time>2015-05-19T14:40:40Z</time>
      </trkpt>
      <trkpt lat="46.92339" lon="4.64657">
        <ele>372.2</ele>
        <time>2015-05-19T14:40:57Z</time>
      </trkpt>
      <trkpt lat="46.92335" lon="4.64683">
        <ele>372.7</ele>
        <time>2015-05-19T14:41:06Z</time>
      </trkpt>
      <trkpt lat="46.92324" lon="4.64714">
        <ele>371.5</ele>
        <time>2015-05-19T14:41:16Z</time>
      </trkpt>
      <trkpt lat="46.92319" lon="4.64741">
        <ele>370.5</ele>
        <time>2015-05-19T14:41:25Z</time>
      </trkpt>
      <trkpt lat="46.92319" lon="4.64832">
        <ele>369.1</ele>
        <time>2015-05-19T14:41:52Z</time>
      </trkpt>
      <trkpt lat="46.92312" lon="4.64899">
        <ele>367.9</ele>
        <time>2015-05-19T14:42:13Z</time>
      </trkpt>
      <trkpt lat="46.92315" lon="4.64911">
        <ele>368.5</ele>
        <time>2015-05-19T14:42:17Z</time>
      </trkpt>
      <trkpt lat="46.92345" lon="4.64916">
        <ele>372.7</ele>
        <time>2015-05-19T14:42:30Z</time>
      </trkpt>
      <trkpt lat="46.92345" lon="4.64962">
        <ele>373.7</ele>
        <time>2015-05-19T14:42:44Z</time>
      </trkpt>
      <trkpt lat="46.92345" lon="4.65009">
        <ele>375.6</ele>
        <time>2015-05-19T14:42:59Z</time>
      </trkpt>
      <trkpt lat="46.92346" lon="4.65032">
        <ele>377</ele>
        <time>2015-05-19T14:43:05Z</time>
      </trkpt>
      <trkpt lat="46.92355" lon="4.65048">
        <ele>378.8</ele>
        <time>2015-05-19T14:43:12Z</time>
      </trkpt>
      <trkpt lat="46.92366" lon="4.65065">
        <ele>381.2</ele>
        <time>2015-05-19T14:43:19Z</time>
      </trkpt>
      <trkpt lat="46.92382" lon="4.65088">
        <ele>383.3</ele>
        <time>2015-05-19T14:43:29Z</time>
      </trkpt>
      <trkpt lat="46.92456" lon="4.65203">
        <ele>389.5</ele>
        <time>2015-05-19T14:44:17Z</time>
      </trkpt>
      <trkpt lat="46.9257" lon="4.65384">
        <ele>395.9</ele>
        <time>2015-05-19T14:45:31Z</time>
      </trkpt>
      <trkpt lat="46.92581" lon="4.65415">
        <ele>396.9</ele>
        <time>2015-05-19T14:45:42Z</time>
      </trkpt>
      <trkpt lat="46.92588" lon="4.65415">
        <ele>396.7</ele>
        <time>2015-05-19T14:45:45Z</time>
      </trkpt>
      <trkpt lat="46.92626" lon="4.65411">
        <ele>396.7</ele>
        <time>2015-05-19T14:46:02Z</time>
      </trkpt>
      <trkpt lat="46.92685" lon="4.65402">
        <ele>396.2</ele>
        <time>2015-05-19T14:46:28Z</time>
      </trkpt>
      <trkpt lat="46.92934" lon="4.65362">
        <ele>396</ele>
        <time>2015-05-19T14:48:20Z</time>
      </trkpt>
      <trkpt lat="46.92966" lon="4.65355">
        <ele>396.2</ele>
        <time>2015-05-19T14:48:34Z</time>
      </trkpt>
      <trkpt lat="46.92991" lon="4.65345">
        <ele>396</ele>
        <time>2015-05-19T14:48:46Z</time>
      </trkpt>
      <trkpt lat="46.93007" lon="4.65328">
        <ele>395.2</ele>
        <time>2015-05-19T14:48:55Z</time>
      </trkpt>
      <trkpt lat="46.93029" lon="4.65318">
        <ele>394.4</ele>
        <time>2015-05-19T14:49:05Z</time>
      </trkpt>
      <trkpt lat="46.9304" lon="4.65318">
        <ele>394.2</ele>
        <time>2015-05-19T14:49:10Z</time>
      </trkpt>
      <trkpt lat="46.93064" lon="4.65321">
        <ele>394</ele>
        <time>2015-05-19T14:49:20Z</time>
      </trkpt>
      <trkpt lat="46.9319" lon="4.65353">
        <ele>394.7</ele>
        <time>2015-05-19T14:50:17Z</time>
      </trkpt>
      <trkpt lat="46.93235" lon="4.65367">
        <ele>394</ele>
        <time>2015-05-19T14:50:38Z</time>
      </trkpt>
      <trkpt lat="46.9329" lon="4.65391">
        <ele>392.6</ele>
        <time>2015-05-19T14:51:03Z</time>
      </trkpt>
      <trkpt lat="46.93322" lon="4.65408">
        <ele>391.7</ele>
        <time>2015-05-19T14:51:18Z</time>
      </trkpt>
      <trkpt lat="46.93272" lon="4.65628">
        <ele>403.1</ele>
        <time>2015-05-19T14:52:29Z</time>
      </trkpt>
      <trkpt lat="46.93241" lon="4.65755">
        <ele>413.1</ele>
        <time>2015-05-19T14:53:10Z</time>
      </trkpt>
      <trkpt lat="46.93238" lon="4.65767">
        <ele>414</ele>
        <time>2015-05-19T14:53:14Z</time>
      </trkpt>
      <trkpt lat="46.93228" lon="4.6579">
        <ele>415.8</ele>
        <time>2015-05-19T14:53:22Z</time>
      </trkpt>
      <trkpt lat="46.93219" lon="4.65806">
        <ele>417.2</ele>
        <time>2015-05-19T14:53:28Z</time>
      </trkpt>
      <trkpt lat="46.9321" lon="4.6582">
        <ele>418.7</ele>
        <time>2015-05-19T14:53:34Z</time>
      </trkpt>
      <trkpt lat="46.93192" lon="4.65838">
        <ele>422.3</ele>
        <time>2015-05-19T14:53:44Z</time>
      </trkpt>
      <trkpt lat="46.93192" lon="4.65842">
        <ele>422.7</ele>
        <time>2015-05-19T14:53:45Z</time>
      </trkpt>
      <trkpt lat="46.93192" lon="4.65867">
        <ele>424.9</ele>
        <time>2015-05-19T14:53:52Z</time>
      </trkpt>
      <trkpt lat="46.93192" lon="4.65878">
        <ele>426</ele>
        <time>2015-05-19T14:53:56Z</time>
      </trkpt>
      <trkpt lat="46.9319" lon="4.65889">
        <ele>427.2</ele>
        <time>2015-05-19T14:53:59Z</time>
      </trkpt>
      <trkpt lat="46.93181" lon="4.65925">
        <ele>431.4</ele>
        <time>2015-05-19T14:54:11Z</time>
      </trkpt>
      <trkpt lat="46.93175" lon="4.65958">
        <ele>435.4</ele>
        <time>2015-05-19T14:54:21Z</time>
      </trkpt>
      <trkpt lat="46.93171" lon="4.65972">
        <ele>437.7</ele>
        <time>2015-05-19T14:54:26Z</time>
      </trkpt>
      <trkpt lat="46.93169" lon="4.65988">
        <ele>439.9</ele>
        <time>2015-05-19T14:54:31Z</time>
      </trkpt>
      <trkpt lat="46.93183" lon="4.66022">
        <ele>442.8</ele>
        <time>2015-05-19T14:54:43Z</time>
      </trkpt>
      <trkpt lat="46.93186" lon="4.66034">
        <ele>444</ele>
        <time>2015-05-19T14:54:47Z</time>
      </trkpt>
      <trkpt lat="46.9319" lon="4.66056">
        <ele>446.5</ele>
        <time>2015-05-19T14:54:54Z</time>
      </trkpt>
      <trkpt lat="46.93193" lon="4.66095">
        <ele>450.8</ele>
        <time>2015-05-19T14:55:06Z</time>
      </trkpt>
      <trkpt lat="46.93195" lon="4.66127">
        <ele>454.1</ele>
        <time>2015-05-19T14:55:15Z</time>
      </trkpt>
      <trkpt lat="46.93198" lon="4.66145">
        <ele>455.5</ele>
        <time>2015-05-19T14:55:21Z</time>
      </trkpt>
      <trkpt lat="46.93199" lon="4.66202">
        <ele>456.2</ele>
        <time>2015-05-19T14:55:38Z</time>
      </trkpt>
      <trkpt lat="46.93176" lon="4.66259">
        <ele>455.9</ele>
        <time>2015-05-19T14:55:59Z</time>
      </trkpt>
      <trkpt lat="46.93149" lon="4.66298">
        <ele>455.4</ele>
        <time>2015-05-19T14:56:15Z</time>
      </trkpt>
      <trkpt lat="46.93112" lon="4.66347">
        <ele>452.1</ele>
        <time>2015-05-19T14:56:37Z</time>
      </trkpt>
      <trkpt lat="46.9309" lon="4.66374">
        <ele>450.9</ele>
        <time>2015-05-19T14:56:50Z</time>
      </trkpt>
      <trkpt lat="46.93066" lon="4.66399">
        <ele>449.9</ele>
        <time>2015-05-19T14:57:04Z</time>
      </trkpt>
      <trkpt lat="46.9303" lon="4.66426">
        <ele>450.7</ele>
        <time>2015-05-19T14:57:22Z</time>
      </trkpt>
      <trkpt lat="46.93019" lon="4.66433">
        <ele>450.9</ele>
        <time>2015-05-19T14:57:27Z</time>
      </trkpt>
      <trkpt lat="46.93" lon="4.66443">
        <ele>451.7</ele>
        <time>2015-05-19T14:57:36Z</time>
      </trkpt>
      <trkpt lat="46.92984" lon="4.66455">
        <ele>452.4</ele>
        <time>2015-05-19T14:57:44Z</time>
      </trkpt>
      <trkpt lat="46.92968" lon="4.6647">
        <ele>453.3</ele>
        <time>2015-05-19T14:57:52Z</time>
      </trkpt>
      <trkpt lat="46.92956" lon="4.66487">
        <ele>453.8</ele>
        <time>2015-05-19T14:58:00Z</time>
      </trkpt>
      <trkpt lat="46.92944" lon="4.66522">
        <ele>454.6</ele>
        <time>2015-05-19T14:58:12Z</time>
      </trkpt>
      <trkpt lat="46.92888" lon="4.66549">
        <ele>454.1</ele>
        <time>2015-05-19T14:58:38Z</time>
      </trkpt>
      <trkpt lat="46.92832" lon="4.66577">
        <ele>450.8</ele>
        <time>2015-05-19T14:59:04Z</time>
      </trkpt>
      <trkpt lat="46.92771" lon="4.6661">
        <ele>449.1</ele>
        <time>2015-05-19T14:59:33Z</time>
      </trkpt>
      <trkpt lat="46.92762" lon="4.66614">
        <ele>449</ele>
        <time>2015-05-19T14:59:37Z</time>
      </trkpt>
      <trkpt lat="46.92742" lon="4.66614">
        <ele>448.4</ele>
        <time>2015-05-19T14:59:46Z</time>
      </trkpt>
      <trkpt lat="46.92596" lon="4.66542">
        <ele>443.7</ele>
        <time>2015-05-19T15:00:55Z</time>
      </trkpt>
      <trkpt lat="46.9257" lon="4.66513">
        <ele>443.1</ele>
        <time>2015-05-19T15:01:09Z</time>
      </trkpt>
      <trkpt lat="46.92538" lon="4.66502">
        <ele>443.9</ele>
        <time>2015-05-19T15:01:24Z</time>
      </trkpt>
      <trkpt lat="46.92512" lon="4.66501">
        <ele>445</ele>
        <time>2015-05-19T15:01:35Z</time>
      </trkpt>
      <trkpt lat="46.925" lon="4.66507">
        <ele>446.1</ele>
        <time>2015-05-19T15:01:41Z</time>
      </trkpt>
      <trkpt lat="46.9249" lon="4.66517">
        <ele>447.1</ele>
        <time>2015-05-19T15:01:46Z</time>
      </trkpt>
      <trkpt lat="46.92486" lon="4.66523">
        <ele>447.7</ele>
        <time>2015-05-19T15:01:49Z</time>
      </trkpt>
      <trkpt lat="46.92477" lon="4.66545">
        <ele>449.4</ele>
        <time>2015-05-19T15:01:57Z</time>
      </trkpt>
      <trkpt lat="46.92468" lon="4.66576">
        <ele>451.6</ele>
        <time>2015-05-19T15:02:07Z</time>
      </trkpt>
      <trkpt lat="46.9246" lon="4.66611">
        <ele>453.8</ele>
        <time>2015-05-19T15:02:18Z</time>
      </trkpt>
      <trkpt lat="46.92453" lon="4.66649">
        <ele>456.2</ele>
        <time>2015-05-19T15:02:30Z</time>
      </trkpt>
      <trkpt lat="46.92437" lon="4.66704">
        <ele>459.8</ele>
        <time>2015-05-19T15:02:48Z</time>
      </trkpt>
      <trkpt lat="46.92435" lon="4.66727">
        <ele>461.2</ele>
        <time>2015-05-19T15:02:55Z</time>
      </trkpt>
      <trkpt lat="46.92435" lon="4.6681">
        <ele>465.2</ele>
        <time>2015-05-19T15:03:21Z</time>
      </trkpt>
      <trkpt lat="46.92374" lon="4.6682">
        <ele>471.1</ele>
        <time>2015-05-19T15:03:48Z</time>
      </trkpt>
      <trkpt lat="46.92359" lon="4.66824">
        <ele>472.7</ele>
        <time>2015-05-19T15:03:54Z</time>
      </trkpt>
      <trkpt lat="46.92341" lon="4.66823">
        <ele>474.3</ele>
        <time>2015-05-19T15:04:03Z</time>
      </trkpt>
      <trkpt lat="46.92325" lon="4.66826">
        <ele>476</ele>
        <time>2015-05-19T15:04:10Z</time>
      </trkpt>
      <trkpt lat="46.9231" lon="4.66835">
        <ele>477.8</ele>
        <time>2015-05-19T15:04:17Z</time>
      </trkpt>
      <trkpt lat="46.92295" lon="4.66854">
        <ele>479.9</ele>
        <time>2015-05-19T15:04:26Z</time>
      </trkpt>
      <trkpt lat="46.92283" lon="4.66873">
        <ele>481.8</ele>
        <time>2015-05-19T15:04:34Z</time>
      </trkpt>
      <trkpt lat="46.9227" lon="4.66889">
        <ele>483.8</ele>
        <time>2015-05-19T15:04:42Z</time>
      </trkpt>
      <trkpt lat="46.92258" lon="4.6689">
        <ele>484.9</ele>
        <time>2015-05-19T15:04:47Z</time>
      </trkpt>
      <trkpt lat="46.92235" lon="4.66875">
        <ele>485.8</ele>
        <time>2015-05-19T15:04:58Z</time>
      </trkpt>
      <trkpt lat="46.92215" lon="4.66857">
        <ele>486</ele>
        <time>2015-05-19T15:05:08Z</time>
      </trkpt>
      <trkpt lat="46.9219" lon="4.66828">
        <ele>486.1</ele>
        <time>2015-05-19T15:05:22Z</time>
      </trkpt>
      <trkpt lat="46.92172" lon="4.66796">
        <ele>485.2</ele>
        <time>2015-05-19T15:05:35Z</time>
      </trkpt>
      <trkpt lat="46.92149" lon="4.66765">
        <ele>484.3</ele>
        <time>2015-05-19T15:05:49Z</time>
      </trkpt>
      <trkpt lat="46.92137" lon="4.66756">
        <ele>484.2</ele>
        <time>2015-05-19T15:05:55Z</time>
      </trkpt>
      <trkpt lat="46.92102" lon="4.66737">
        <ele>484.4</ele>
        <time>2015-05-19T15:06:11Z</time>
      </trkpt>
      <trkpt lat="46.92087" lon="4.66733">
        <ele>485</ele>
        <time>2015-05-19T15:06:18Z</time>
      </trkpt>
      <trkpt lat="46.92072" lon="4.66734">
        <ele>486</ele>
        <time>2015-05-19T15:06:25Z</time>
      </trkpt>
      <trkpt lat="46.92036" lon="4.66739">
        <ele>488.9</ele>
        <time>2015-05-19T15:06:41Z</time>
      </trkpt>
      <trkpt lat="46.92021" lon="4.66747">
        <ele>490.9</ele>
        <time>2015-05-19T15:06:48Z</time>
      </trkpt>
      <trkpt lat="46.92014" lon="4.66753">
        <ele>492</ele>
        <time>2015-05-19T15:06:52Z</time>
      </trkpt>
      <trkpt lat="46.92012" lon="4.66761">
        <ele>493.1</ele>
        <time>2015-05-19T15:06:54Z</time>
      </trkpt>
      <trkpt lat="46.9202" lon="4.66797">
        <ele>497.8</ele>
        <time>2015-05-19T15:07:06Z</time>
      </trkpt>
      <trkpt lat="46.92041" lon="4.66857">
        <ele>503.4</ele>
        <time>2015-05-19T15:07:26Z</time>
      </trkpt>
      <trkpt lat="46.92063" lon="4.66932">
        <ele>509.5</ele>
        <time>2015-05-19T15:07:51Z</time>
      </trkpt>
      <trkpt lat="46.92078" lon="4.66967">
        <ele>508.4</ele>
        <time>2015-05-19T15:08:04Z</time>
      </trkpt>
      <trkpt lat="46.92079" lon="4.66981">
        <ele>508.2</ele>
        <time>2015-05-19T15:08:08Z</time>
      </trkpt>
      <trkpt lat="46.92086" lon="4.66993">
        <ele>506.9</ele>
        <time>2015-05-19T15:08:13Z</time>
      </trkpt>
      <trkpt lat="46.9211" lon="4.6702">
        <ele>501.3</ele>
        <time>2015-05-19T15:08:26Z</time>
      </trkpt>
      <trkpt lat="46.92127" lon="4.6705">
        <ele>493.4</ele>
        <time>2015-05-19T15:08:38Z</time>
      </trkpt>
      <trkpt lat="46.92136" lon="4.67074">
        <ele>489.5</ele>
        <time>2015-05-19T15:08:47Z</time>
      </trkpt>
      <trkpt lat="46.92163" lon="4.67153">
        <ele>480.5</ele>
        <time>2015-05-19T15:09:13Z</time>
      </trkpt>
      <trkpt lat="46.9219" lon="4.67257">
        <ele>473.1</ele>
        <time>2015-05-19T15:09:47Z</time>
      </trkpt>
      <trkpt lat="46.92194" lon="4.67268">
        <ele>472.8</ele>
        <time>2015-05-19T15:09:51Z</time>
      </trkpt>
      <trkpt lat="46.92205" lon="4.67286">
        <ele>472.3</ele>
        <time>2015-05-19T15:09:58Z</time>
      </trkpt>
      <trkpt lat="46.92218" lon="4.673">
        <ele>472</ele>
        <time>2015-05-19T15:10:06Z</time>
      </trkpt>
      <trkpt lat="46.92228" lon="4.67313">
        <ele>471.6</ele>
        <time>2015-05-19T15:10:11Z</time>
      </trkpt>
      <trkpt lat="46.92241" lon="4.67329">
        <ele>471</ele>
        <time>2015-05-19T15:10:19Z</time>
      </trkpt>
      <trkpt lat="46.92251" lon="4.67344">
        <ele>469.6</ele>
        <time>2015-05-19T15:10:25Z</time>
      </trkpt>
      <trkpt lat="46.92262" lon="4.67366">
        <ele>467.5</ele>
        <time>2015-05-19T15:10:34Z</time>
      </trkpt>
      <trkpt lat="46.92271" lon="4.67387">
        <ele>465.5</ele>
        <time>2015-05-19T15:10:41Z</time>
      </trkpt>
      <trkpt lat="46.92281" lon="4.67402">
        <ele>464</ele>
        <time>2015-05-19T15:10:48Z</time>
      </trkpt>
      <trkpt lat="46.92298" lon="4.67426">
        <ele>461.8</ele>
        <time>2015-05-19T15:10:58Z</time>
      </trkpt>
      <trkpt lat="46.92306" lon="4.67432">
        <ele>461.3</ele>
        <time>2015-05-19T15:11:02Z</time>
      </trkpt>
      <trkpt lat="46.92334" lon="4.67465">
        <ele>459.6</ele>
        <time>2015-05-19T15:11:18Z</time>
      </trkpt>
      <trkpt lat="46.92343" lon="4.67469">
        <ele>460.3</ele>
        <time>2015-05-19T15:11:22Z</time>
      </trkpt>
      <trkpt lat="46.92351" lon="4.67484">
        <ele>460.8</ele>
        <time>2015-05-19T15:11:28Z</time>
      </trkpt>
      <trkpt lat="46.92351" lon="4.67492">
        <ele>461.3</ele>
        <time>2015-05-19T15:11:31Z</time>
      </trkpt>
      <trkpt lat="46.92318" lon="4.67539">
        <ele>456</ele>
        <time>2015-05-19T15:11:51Z</time>
      </trkpt>
      <trkpt lat="46.92297" lon="4.67583">
        <ele>452</ele>
        <time>2015-05-19T15:12:07Z</time>
      </trkpt>
      <trkpt lat="46.92285" lon="4.67636">
        <ele>449.4</ele>
        <time>2015-05-19T15:12:24Z</time>
      </trkpt>
      <trkpt lat="46.92279" lon="4.67653">
        <ele>447.3</ele>
        <time>2015-05-19T15:12:30Z</time>
      </trkpt>
      <trkpt lat="46.9227" lon="4.67696">
        <ele>442.2</ele>
        <time>2015-05-19T15:12:44Z</time>
      </trkpt>
      <trkpt lat="46.92267" lon="4.67726">
        <ele>440.5</ele>
        <time>2015-05-19T15:12:53Z</time>
      </trkpt>
      <trkpt lat="46.92268" lon="4.67804">
        <ele>436.9</ele>
        <time>2015-05-19T15:13:17Z</time>
      </trkpt>
      <trkpt lat="46.92275" lon="4.67852">
        <ele>436.6</ele>
        <time>2015-05-19T15:13:32Z</time>
      </trkpt>
      <trkpt lat="46.92278" lon="4.67887">
        <ele>437.3</ele>
        <time>2015-05-19T15:13:42Z</time>
      </trkpt>
      <trkpt lat="46.92278" lon="4.67902">
        <ele>438.5</ele>
        <time>2015-05-19T15:13:47Z</time>
      </trkpt>
      <trkpt lat="46.92264" lon="4.6792">
        <ele>433.9</ele>
        <time>2015-05-19T15:13:55Z</time>
      </trkpt>
      <trkpt lat="46.9224" lon="4.67938">
        <ele>426.5</ele>
        <time>2015-05-19T15:14:07Z</time>
      </trkpt>
      <trkpt lat="46.92219" lon="4.6796">
        <ele>424.2</ele>
        <time>2015-05-19T15:14:18Z</time>
      </trkpt>
      <trkpt lat="46.92193" lon="4.67974">
        <ele>417</ele>
        <time>2015-05-19T15:14:31Z</time>
      </trkpt>
      <trkpt lat="46.9218" lon="4.67988">
        <ele>415</ele>
        <time>2015-05-19T15:14:38Z</time>
      </trkpt>
      <trkpt lat="46.92172" lon="4.67992">
        <ele>413.1</ele>
        <time>2015-05-19T15:14:42Z</time>
      </trkpt>
      <trkpt lat="46.92145" lon="4.68">
        <ele>402.9</ele>
        <time>2015-05-19T15:14:54Z</time>
      </trkpt>
      <trkpt lat="46.9212" lon="4.68012">
        <ele>395.3</ele>
        <time>2015-05-19T15:15:05Z</time>
      </trkpt>
      <trkpt lat="46.92104" lon="4.68025">
        <ele>392</ele>
        <time>2015-05-19T15:15:14Z</time>
      </trkpt>
      <trkpt lat="46.92094" lon="4.68037">
        <ele>390.7</ele>
        <time>2015-05-19T15:15:20Z</time>
      </trkpt>
      <trkpt lat="46.92075" lon="4.68063">
        <ele>388.4</ele>
        <time>2015-05-19T15:15:31Z</time>
      </trkpt>
      <trkpt lat="46.9205" lon="4.68109">
        <ele>387.8</ele>
        <time>2015-05-19T15:15:49Z</time>
      </trkpt>
      <trkpt lat="46.92039" lon="4.68125">
        <ele>386.4</ele>
        <time>2015-05-19T15:15:56Z</time>
      </trkpt>
      <trkpt lat="46.92026" lon="4.68127">
        <ele>382</ele>
        <time>2015-05-19T15:16:02Z</time>
      </trkpt>
      <trkpt lat="46.92012" lon="4.68134">
        <ele>378.6</ele>
        <time>2015-05-19T15:16:08Z</time>
      </trkpt>
      <trkpt lat="46.92002" lon="4.68137">
        <ele>375.7</ele>
        <time>2015-05-19T15:16:13Z</time>
      </trkpt>
      <trkpt lat="46.91988" lon="4.68144">
        <ele>372.3</ele>
        <time>2015-05-19T15:16:20Z</time>
      </trkpt>
      <trkpt lat="46.91954" lon="4.68165">
        <ele>366.3</ele>
        <time>2015-05-19T15:16:36Z</time>
      </trkpt>
      <trkpt lat="46.91939" lon="4.68181">
        <ele>364.5</ele>
        <time>2015-05-19T15:16:44Z</time>
      </trkpt>
      <trkpt lat="46.91896" lon="4.68217">
        <ele>357.2</ele>
        <time>2015-05-19T15:17:06Z</time>
      </trkpt>
      <trkpt lat="46.91882" lon="4.68233">
        <ele>354.5</ele>
        <time>2015-05-19T15:17:14Z</time>
      </trkpt>
      <trkpt lat="46.91845" lon="4.68297">
        <ele>348.6</ele>
        <time>2015-05-19T15:17:40Z</time>
      </trkpt>
      <trkpt lat="46.91833" lon="4.68328">
        <ele>347.2</ele>
        <time>2015-05-19T15:17:51Z</time>
      </trkpt>
      <trkpt lat="46.91821" lon="4.68349">
        <ele>344.6</ele>
        <time>2015-05-19T15:17:59Z</time>
      </trkpt>
      <trkpt lat="46.91799" lon="4.68385">
        <ele>340.6</ele>
        <time>2015-05-19T15:18:13Z</time>
      </trkpt>
      <trkpt lat="46.91773" lon="4.68436">
        <ele>338.1</ele>
        <time>2015-05-19T15:18:33Z</time>
      </trkpt>
      <trkpt lat="46.91754" lon="4.68443">
        <ele>335</ele>
        <time>2015-05-19T15:18:42Z</time>
      </trkpt>
      <trkpt lat="46.91739" lon="4.68447">
        <ele>332.1</ele>
        <time>2015-05-19T15:18:48Z</time>
      </trkpt>
      <trkpt lat="46.91724" lon="4.68449">
        <ele>329.2</ele>
        <time>2015-05-19T15:18:55Z</time>
      </trkpt>
      <trkpt lat="46.91716" lon="4.68441">
        <ele>327.3</ele>
        <time>2015-05-19T15:18:59Z</time>
      </trkpt>
      <trkpt lat="46.91702" lon="4.6842">
        <ele>322.6</ele>
        <time>2015-05-19T15:19:08Z</time>
      </trkpt>
      <trkpt lat="46.9169" lon="4.68417">
        <ele>320.2</ele>
        <time>2015-05-19T15:19:14Z</time>
      </trkpt>
      <trkpt lat="46.91685" lon="4.68419">
        <ele>319.2</ele>
        <time>2015-05-19T15:19:16Z</time>
      </trkpt>
      <trkpt lat="46.91678" lon="4.68438">
        <ele>319</ele>
        <time>2015-05-19T15:19:23Z</time>
      </trkpt>
      <trkpt lat="46.91671" lon="4.68446">
        <ele>317.6</ele>
        <time>2015-05-19T15:19:26Z</time>
      </trkpt>
      <trkpt lat="46.91665" lon="4.68435">
        <ele>316.3</ele>
        <time>2015-05-19T15:19:31Z</time>
      </trkpt>
      <trkpt lat="46.91653" lon="4.6841">
        <ele>313.2</ele>
        <time>2015-05-19T15:19:40Z</time>
      </trkpt>
      <trkpt lat="46.91642" lon="4.68401">
        <ele>310.9</ele>
        <time>2015-05-19T15:19:46Z</time>
      </trkpt>
      <trkpt lat="46.91632" lon="4.68413">
        <ele>309.8</ele>
        <time>2015-05-19T15:19:51Z</time>
      </trkpt>
      <trkpt lat="46.91619" lon="4.68423">
        <ele>307.8</ele>
        <time>2015-05-19T15:19:58Z</time>
      </trkpt>
      <trkpt lat="46.91595" lon="4.68418">
        <ele>303.4</ele>
        <time>2015-05-19T15:20:09Z</time>
      </trkpt>
      <trkpt lat="46.91581" lon="4.68408">
        <ele>301</ele>
        <time>2015-05-19T15:20:15Z</time>
      </trkpt>
      <trkpt lat="46.91523" lon="4.6847">
        <ele>289.2</ele>
        <time>2015-05-19T15:20:48Z</time>
      </trkpt>
      <trkpt lat="46.9153" lon="4.68445">
        <ele>291.9</ele>
        <time>2015-05-19T15:20:56Z</time>
      </trkpt>
      <trkpt lat="46.91524" lon="4.68468">
        <ele>289.5</ele>
        <time>2015-05-19T15:21:04Z</time>
      </trkpt>
      <trkpt lat="46.91521" lon="4.68487">
        <ele>288.1</ele>
        <time>2015-05-19T15:21:10Z</time>
      </trkpt>
      <trkpt lat="46.9152" lon="4.68514">
        <ele>287</ele>
        <time>2015-05-19T15:21:18Z</time>
      </trkpt>
      <trkpt lat="46.91527" lon="4.68545">
        <ele>287.2</ele>
        <time>2015-05-19T15:21:28Z</time>
      </trkpt>
      <trkpt lat="46.91537" lon="4.68577">
        <ele>288</ele>
        <time>2015-05-19T15:21:39Z</time>
      </trkpt>
      <trkpt lat="46.91535" lon="4.68615">
        <ele>287.3</ele>
        <time>2015-05-19T15:21:50Z</time>
      </trkpt>
      <trkpt lat="46.91527" lon="4.6863">
        <ele>285.9</ele>
        <time>2015-05-19T15:21:56Z</time>
      </trkpt>
      <trkpt lat="46.91471" lon="4.68698">
        <ele>278.8</ele>
        <time>2015-05-19T15:22:28Z</time>
      </trkpt>
      <trkpt lat="46.91458" lon="4.68724">
        <ele>277</ele>
        <time>2015-05-19T15:22:38Z</time>
      </trkpt>
      <trkpt lat="46.91458" lon="4.6882">
        <ele>274.7</ele>
        <time>2015-05-19T15:23:07Z</time>
      </trkpt>
      <trkpt lat="46.91445" lon="4.68881">
        <ele>271.1</ele>
        <time>2015-05-19T15:23:26Z</time>
      </trkpt>
      <trkpt lat="46.91433" lon="4.69061">
        <ele>259.9</ele>
        <time>2015-05-19T15:24:21Z</time>
      </trkpt>
      <trkpt lat="46.91432" lon="4.69144">
        <ele>256.1</ele>
        <time>2015-05-19T15:24:47Z</time>
      </trkpt>
      <trkpt lat="46.91419" lon="4.69232">
        <ele>250.3</ele>
        <time>2015-05-19T15:25:14Z</time>
      </trkpt>
      <trkpt lat="46.91418" lon="4.69252">
        <ele>248.6</ele>
        <time>2015-05-19T15:25:20Z</time>
      </trkpt>
      <trkpt lat="46.91425" lon="4.69277">
        <ele>247.9</ele>
        <time>2015-05-19T15:25:28Z</time>
      </trkpt>
      <trkpt lat="46.91445" lon="4.69328">
        <ele>246.8</ele>
        <time>2015-05-19T15:25:46Z</time>
      </trkpt>
      <trkpt lat="46.91456" lon="4.69348">
        <ele>246.5</ele>
        <time>2015-05-19T15:25:54Z</time>
      </trkpt>
      <trkpt lat="46.91442" lon="4.69368">
        <ele>244.2</ele>
        <time>2015-05-19T15:26:03Z</time>
      </trkpt>
      <trkpt lat="46.91432" lon="4.69386">
        <ele>242.5</ele>
        <time>2015-05-19T15:26:10Z</time>
      </trkpt>
      <trkpt lat="46.91421" lon="4.69419">
        <ele>240.2</ele>
        <time>2015-05-19T15:26:21Z</time>
      </trkpt>
      <trkpt lat="46.9142" lon="4.69437">
        <ele>239.3</ele>
        <time>2015-05-19T15:26:27Z</time>
      </trkpt>
      <trkpt lat="46.91411" lon="4.69464">
        <ele>237.6</ele>
        <time>2015-05-19T15:26:36Z</time>
      </trkpt>
      <trkpt lat="46.91389" lon="4.69514">
        <ele>234.5</ele>
        <time>2015-05-19T15:26:54Z</time>
      </trkpt>
      <trkpt lat="46.9134" lon="4.69583">
        <ele>230.7</ele>
        <time>2015-05-19T15:27:24Z</time>
      </trkpt>
      <trkpt lat="46.91313" lon="4.69618">
        <ele>229</ele>
        <time>2015-05-19T15:27:40Z</time>
      </trkpt>
      <trkpt lat="46.91306" lon="4.69625">
        <ele>228.6</ele>
        <time>2015-05-19T15:27:44Z</time>
      </trkpt>
      <trkpt lat="46.91291" lon="4.69648">
        <ele>227.5</ele>
        <time>2015-05-19T15:27:54Z</time>
      </trkpt>
      <trkpt lat="46.91268" lon="4.69686">
        <ele>225.9</ele>
        <time>2015-05-19T15:28:09Z</time>
      </trkpt>
      <trkpt lat="46.91233" lon="4.69739">
        <ele>223.6</ele>
        <time>2015-05-19T15:28:31Z</time>
      </trkpt>
      <trkpt lat="46.91213" lon="4.69766">
        <ele>222.8</ele>
        <time>2015-05-19T15:28:43Z</time>
      </trkpt>
      <trkpt lat="46.91202" lon="4.69784">
        <ele>222.3</ele>
        <time>2015-05-19T15:28:51Z</time>
      </trkpt>
      <trkpt lat="46.91168" lon="4.69852">
        <ele>220.8</ele>
        <time>2015-05-19T15:29:16Z</time>
      </trkpt>
      <trkpt lat="46.91154" lon="4.69882">
        <ele>220.3</ele>
        <time>2015-05-19T15:29:27Z</time>
      </trkpt>
      <trkpt lat="46.91143" lon="4.69915">
        <ele>219.9</ele>
        <time>2015-05-19T15:29:38Z</time>
      </trkpt>
      <trkpt lat="46.91141" lon="4.69932">
        <ele>219.8</ele>
        <time>2015-05-19T15:29:44Z</time>
      </trkpt>
      <trkpt lat="46.91134" lon="4.69945">
        <ele>219.7</ele>
        <time>2015-05-19T15:29:49Z</time>
      </trkpt>
      <trkpt lat="46.91161" lon="4.69941">
        <ele>220.7</ele>
        <time>2015-05-19T15:30:01Z</time>
      </trkpt>
      <trkpt lat="46.91136" lon="4.70001">
        <ele>219.9</ele>
        <time>2015-05-19T15:30:22Z</time>
      </trkpt>
      <trkpt lat="46.91139" lon="4.70007">
        <ele>220</ele>
        <time>2015-05-19T15:30:25Z</time>
      </trkpt>
    </trkseg>
  </trk>
</gpx>